AA3858 / N207AN 7700 Squawk Report (10th of January, 2022)

Aircraft E75L Reg No. N207AN Age N/A
Model Emb-175 Jet engines 2 First flight N/A
Registered 25-06-20 Rollout 04-15 Delivered 08-07-15
Construction No. 17000490 Line No. N/A Series 200LR
ADSHEX A1AC11 Airline name Envoy Air Owner Envoy Air
Airfield based Dallas-Fort Worth~TX~N First tracked N/A

Flight history for N207AN

Time Lat Lon Altitude Heading Speed Vertical Rate
2022-01-10 14:37:07 GMT 25.797590 -80.287270 0 88 5 0
2022-01-10 14:37:05 GMT 25.797590 -80.287323 0 88 5 0
2022-01-10 14:37:04 GMT 25.797590 -80.287354 0 88 5 0
2022-01-10 14:37:03 GMT 25.797590 -80.287376 0 88 5 0
2022-01-10 14:37:01 GMT 25.797590 -80.287453 0 85 4 0
2022-01-10 14:37:00 GMT 25.797590 -80.287483 0 84 4 0
2022-01-10 14:36:58 GMT 25.797590 -80.287537 0 80 3 0
2022-01-10 14:36:57 GMT 25.797600 -80.287567 0 78 3 0
2022-01-10 14:36:56 GMT 25.797600 -80.287621 0 74 3 0
2022-01-10 14:36:54 GMT 25.797600 -80.287643 0 74 2 0
2022-01-10 14:36:52 GMT 25.797609 -80.287659 0 73 2 0
2022-01-10 14:36:51 GMT 25.797609 -80.287666 0 73 3 0
2022-01-10 14:36:50 GMT 25.797609 -80.287682 0 73 3 0
2022-01-10 14:36:49 GMT 25.797609 -80.287697 0 73 3 0
2022-01-10 14:36:48 GMT 25.797600 -80.287743 0 66 2 0
2022-01-10 14:36:46 GMT 25.797600 -80.287743 0 68 4 0
2022-01-10 14:36:45 GMT 25.797590 -80.287750 0 71 5 0
2022-01-10 14:36:43 GMT 25.797569 -80.287811 0 51 2 0
2022-01-10 14:36:42 GMT 25.797581 -80.287819 0 49 2 0
2022-01-10 14:36:40 GMT 25.797581 -80.287857 0 48 0 0
2022-01-10 14:36:39 GMT 25.797569 -80.287872 0 48 0 0
2022-01-10 14:36:38 GMT 25.797569 -80.287880 0 48 1 0
2022-01-10 14:36:37 GMT 25.797560 -80.287872 0 48 1 0
2022-01-10 14:36:35 GMT 25.797569 -80.287872 0 46 3 0
2022-01-10 14:36:33 GMT 25.797550 -80.287903 0 42 2 0
2022-01-10 14:36:31 GMT 25.797569 -80.287918 0 32 3 0
2022-01-10 14:36:29 GMT 25.797560 -80.287941 0 26 3 0
2022-01-10 14:36:28 GMT 25.797541 -80.287971 0 23 1 0
2022-01-10 14:36:26 GMT 25.797520 -80.287956 0 22 2 0
2022-01-10 14:36:24 GMT 25.797520 -80.287987 0 20 1 0
2022-01-10 14:36:22 GMT 25.797489 -80.287987 0 18 2 0
2022-01-10 14:36:21 GMT 25.797501 -80.288017 0 18 0 0
2022-01-10 14:36:19 GMT 25.797501 -80.288033 0 18 0 0
2022-01-10 14:36:18 GMT 25.797520 -80.288033 0 19 2 0
2022-01-10 14:36:16 GMT 25.797501 -80.288033 0 20 2 0
2022-01-10 14:36:15 GMT 25.797470 -80.288033 0 18 2 0
2022-01-10 14:36:14 GMT 25.797480 -80.288048 0 18 0 0
2022-01-10 14:36:12 GMT 25.797470 -80.288071 0 18 0 0
2022-01-10 14:36:10 GMT 25.797461 -80.288094 0 18 0 0
2022-01-10 14:36:08 GMT 25.797440 -80.288078 0 18 0 0
2022-01-10 14:36:06 GMT 25.797470 -80.288078 0 15 3 0
2022-01-10 14:36:05 GMT 25.797461 -80.288078 0 9 3 0
2022-01-10 14:36:04 GMT 25.797430 -80.288109 0 5 2 0
2022-01-10 14:36:03 GMT 25.797409 -80.288109 0 5 2 0
2022-01-10 14:36:01 GMT 25.797380 -80.288116 0 5 0 0
2022-01-10 14:36:00 GMT 25.797390 -80.288109 0 5 2 0
2022-01-10 14:35:58 GMT 25.797371 -80.288116 0 5 0 0
2022-01-10 14:35:57 GMT 25.797380 -80.288116 0 5 1 0
2022-01-10 14:35:55 GMT 25.797359 -80.288116 0 6 1 0
2022-01-10 14:35:54 GMT 25.797350 -80.288109 0 6 0 0
2022-01-10 14:35:53 GMT 25.797371 -80.288109 0 6 3 0
2022-01-10 14:35:52 GMT 25.797340 -80.288132 0 6 0 0
2022-01-10 14:35:50 GMT 25.797331 -80.288132 0 6 1 0
2022-01-10 14:35:49 GMT 25.797331 -80.288109 0 9 1 0
2022-01-10 14:35:47 GMT 25.797340 -80.288116 0 8 1 0
2022-01-10 14:35:44 GMT 25.797350 -80.288116 0 8 3 0
2022-01-10 14:35:43 GMT 25.797340 -80.288132 0 1 4 0
2022-01-10 14:35:42 GMT 25.797319 -80.288116 0 2 4 0
2022-01-10 14:35:40 GMT 25.797310 -80.288139 0 0 6 0
2022-01-10 14:35:39 GMT 25.797300 -80.288116 0 4 8 0
2022-01-10 14:35:38 GMT 25.797211 -80.288139 0 0 7 0
2022-01-10 14:35:36 GMT 25.797190 -80.288132 0 359 8 0
2022-01-10 14:35:34 GMT 25.797110 -80.288170 0 343 7 0
2022-01-10 14:35:33 GMT 25.797091 -80.288147 0 349 8 0
2022-01-10 14:35:31 GMT 25.797041 -80.288116 0 0 10 0
2022-01-10 14:35:30 GMT 25.797001 -80.288101 0 2 13 0
2022-01-10 14:35:29 GMT 25.796949 -80.288116 0 357 12 0
2022-01-10 14:35:28 GMT 25.796829 -80.288109 0 359 12 0
2022-01-10 14:35:26 GMT 25.796780 -80.288116 0 357 13 0
2022-01-10 14:35:25 GMT 25.796709 -80.288109 0 2 11 0
2022-01-10 14:35:23 GMT 25.796619 -80.288116 0 359 14 0
2022-01-10 14:35:22 GMT 25.796570 -80.288132 0 352 15 0
2022-01-10 14:35:21 GMT 25.796490 -80.288116 0 351 14 0
2022-01-10 14:35:19 GMT 25.796360 -80.288094 0 359 14 0
2022-01-10 14:35:18 GMT 25.796310 -80.288094 0 358 15 0
2022-01-10 14:35:17 GMT 25.796221 -80.288101 0 354 14 0
2022-01-10 14:35:15 GMT 25.796101 -80.288094 0 353 15 0
2022-01-10 14:35:14 GMT 25.796030 -80.288063 0 0 14 0
2022-01-10 14:35:12 GMT 25.795910 -80.288071 0 357 14 0
2022-01-10 14:35:11 GMT 25.795830 -80.288048 0 1 14 0
2022-01-10 14:35:09 GMT 25.795710 -80.288063 0 353 14 0
2022-01-10 14:35:08 GMT 25.795660 -80.288048 0 356 16 0
2022-01-10 14:35:06 GMT 25.795490 -80.288033 0 2 14 0
2022-01-10 14:35:04 GMT 25.795361 -80.288033 0 2 15 0
2022-01-10 14:35:03 GMT 25.795280 -80.288040 0 359 13 0
2022-01-10 14:35:02 GMT 25.795160 -80.288033 0 1 15 0
2022-01-10 14:35:00 GMT 25.795071 -80.288048 0 353 13 0
2022-01-10 14:34:59 GMT 25.795000 -80.288048 0 348 12 0
2022-01-10 14:34:57 GMT 25.794901 -80.288010 0 359 13 0
2022-01-10 14:34:56 GMT 25.794821 -80.288033 0 354 12 0
2022-01-10 14:34:55 GMT 25.794750 -80.288010 0 0 11 0
2022-01-10 14:34:53 GMT 25.794649 -80.288017 0 351 12 0
2022-01-10 14:34:52 GMT 25.794590 -80.288017 0 350 11 0
2022-01-10 14:34:51 GMT 25.794550 -80.288010 0 353 13 0
2022-01-10 14:34:49 GMT 25.794420 -80.288002 0 341 11 0
2022-01-10 14:34:48 GMT 25.794359 -80.287987 0 338 10 0
2022-01-10 14:34:47 GMT 25.794331 -80.287971 0 333 11 0
2022-01-10 14:34:46 GMT 25.794210 -80.287941 0 312 8 0
2022-01-10 14:34:44 GMT 25.794170 -80.287933 0 302 9 0
2022-01-10 14:34:43 GMT 25.794130 -80.287903 0 297 10 0
2022-01-10 14:34:41 GMT 25.794109 -80.287811 0 304 10 0
2022-01-10 14:34:40 GMT 25.794069 -80.287773 0 300 11 0
2022-01-10 14:34:39 GMT 25.794010 -80.287659 0 302 9 0
2022-01-10 14:34:37 GMT 25.793980 -80.287628 0 297 9 0
2022-01-10 14:34:36 GMT 25.793961 -80.287590 0 295 9 0
2022-01-10 14:34:35 GMT 25.793930 -80.287514 0 298 12 0
2022-01-10 14:34:33 GMT 25.793900 -80.287430 0 305 10 0
2022-01-10 14:34:32 GMT 25.793871 -80.287369 0 311 10 0
2022-01-10 14:34:30 GMT 25.793819 -80.287277 0 321 8 0
2022-01-10 14:34:29 GMT 25.793819 -80.287262 0 324 10 0
2022-01-10 14:34:28 GMT 25.793779 -80.287231 0 324 11 0
2022-01-10 14:34:27 GMT 25.793730 -80.287193 0 334 10 0
2022-01-10 14:34:26 GMT 25.793650 -80.287117 0 345 8 0
2022-01-10 14:34:24 GMT 25.793610 -80.287109 0 344 9 0
2022-01-10 14:34:23 GMT 25.793591 -80.287109 0 341 11 0
2022-01-10 14:34:21 GMT 25.793470 -80.287071 0 350 8 0
2022-01-10 14:34:20 GMT 25.793430 -80.287048 0 2 7 0
2022-01-10 14:34:19 GMT 25.793400 -80.287018 0 9 6 0
2022-01-10 14:34:17 GMT 25.793329 -80.287064 0 344 7 0
2022-01-10 14:34:16 GMT 25.793310 -80.287064 0 344 7 0
2022-01-10 14:34:14 GMT 25.793249 -80.287018 0 3 5 0
2022-01-10 14:34:13 GMT 25.793221 -80.287018 0 5 6 0
2022-01-10 14:34:11 GMT 25.793171 -80.287018 0 1 5 0
2022-01-10 14:34:10 GMT 25.793131 -80.287041 0 352 4 0
2022-01-10 14:34:09 GMT 25.793100 -80.287041 0 349 2 0
2022-01-10 14:34:08 GMT 25.793079 -80.287041 0 349 3 0
2022-01-10 14:34:06 GMT 25.793079 -80.287041 0 354 3 0
2022-01-10 14:34:05 GMT 25.793060 -80.287041 0 2 4 0
2022-01-10 14:34:03 GMT 25.793030 -80.287010 0 3 2 0
2022-01-10 14:34:02 GMT 25.793011 -80.287010 0 3 0 0
2022-01-10 14:34:01 GMT 25.792999 -80.287010 0 3 0 0
2022-01-10 14:34:00 GMT 25.793011 -80.287010 0 3 2 0
2022-01-10 14:33:59 GMT 25.792990 -80.287010 0 2 2 0
2022-01-10 14:33:57 GMT 25.792990 -80.287010 0 3 2 0
2022-01-10 14:33:56 GMT 25.792980 -80.287018 0 3 2 0
2022-01-10 14:33:55 GMT 25.792959 -80.287003 0 6 2 0
2022-01-10 14:33:53 GMT 25.792980 -80.287003 0 4 4 0
2022-01-10 14:33:52 GMT 25.792950 -80.287018 0 350 4 0
2022-01-10 14:33:50 GMT 25.792919 -80.287010 0 349 3 0
2022-01-10 14:33:48 GMT 25.792900 -80.287033 0 349 4 0
2022-01-10 14:33:46 GMT 25.792870 -80.287010 0 5 4 0
2022-01-10 14:33:45 GMT 25.792860 -80.287003 0 12 4 0
2022-01-10 14:33:44 GMT 25.792830 -80.287010 0 2 4 0
2022-01-10 14:33:42 GMT 25.792789 -80.287041 0 356 5 0
2022-01-10 14:33:41 GMT 25.792770 -80.287003 0 355 4 0
2022-01-10 14:33:40 GMT 25.792780 -80.287010 0 355 7 0
2022-01-10 14:33:39 GMT 25.792721 -80.287010 0 351 8 0
2022-01-10 14:33:37 GMT 25.792681 -80.287003 0 352 8 0
2022-01-10 14:33:36 GMT 25.792629 -80.286987 0 1 9 0
2022-01-10 14:33:34 GMT 25.792601 -80.286957 0 11 10 0
2022-01-10 14:33:32 GMT 25.792521 -80.287003 0 356 10 0
2022-01-10 14:33:31 GMT 25.792471 -80.287010 0 352 10 0
2022-01-10 14:33:30 GMT 25.792419 -80.286980 0 1 9 0
2022-01-10 14:33:29 GMT 25.792330 -80.286987 0 358 10 0
2022-01-10 14:33:27 GMT 25.792290 -80.286987 0 358 11 0
2022-01-10 14:33:26 GMT 25.792200 -80.286972 0 8 12 0
2022-01-10 14:33:25 GMT 25.792139 -80.286980 0 5 12 0
2022-01-10 14:33:23 GMT 25.792070 -80.286987 0 16 10 0
2022-01-10 14:33:22 GMT 25.792030 -80.286972 0 24 10 0
2022-01-10 14:33:20 GMT 25.791960 -80.287010 0 30 13 0
2022-01-10 14:33:19 GMT 25.791889 -80.287048 0 40 10 0
2022-01-10 14:33:18 GMT 25.791840 -80.287071 0 46 10 0
2022-01-10 14:33:17 GMT 25.791780 -80.287148 0 63 8 0
2022-01-10 14:33:15 GMT 25.791750 -80.287178 0 78 7 0
2022-01-10 14:33:13 GMT 25.791700 -80.287216 0 94 10 0
2022-01-10 14:33:12 GMT 25.791691 -80.287277 0 90 9 0
2022-01-10 14:33:11 GMT 25.791719 -80.287392 0 102 6 0
2022-01-10 14:33:09 GMT 25.791719 -80.287453 0 116 4 0
2022-01-10 14:33:08 GMT 25.791700 -80.287453 0 122 9 0
2022-01-10 14:33:07 GMT 25.791719 -80.287498 0 123 10 0
2022-01-10 14:33:05 GMT 25.791771 -80.287590 0 121 13 128
2022-01-10 14:33:04 GMT 25.791790 -80.287628 0 121 17 128
2022-01-10 14:33:02 GMT 25.791889 -80.287788 0 116 22 128
2022-01-10 14:33:01 GMT 25.791929 -80.287888 0 118 24 128
2022-01-10 14:33:00 GMT 25.791981 -80.288010 0 120 26 128
2022-01-10 14:32:58 GMT 25.792120 -80.288254 0 118 30 -224
2022-01-10 14:32:57 GMT 25.792170 -80.288383 -275 120 36 -224
2022-01-10 14:32:56 GMT 25.792259 -80.288544 -275 119 39 -224
2022-01-10 14:32:55 GMT 25.792450 -80.288887 -275 118 46 -224
2022-01-10 14:32:53 GMT 25.792540 -80.289101 -275 119 52 32
2022-01-10 14:32:52 GMT 25.792770 -80.289558 -300 119 61 32
2022-01-10 14:32:50 GMT 25.792910 -80.289810 -300 119 67 32
2022-01-10 14:32:48 GMT 25.793209 -80.290398 -300 119 77 -192
2022-01-10 14:32:47 GMT 25.793381 -80.290749 -300 120 80 -192
2022-01-10 14:32:46 GMT 25.793550 -80.291107 -300 121 84 -192
2022-01-10 14:32:44 GMT 25.793930 -80.291832 -275 120 96 -192
2022-01-10 14:32:43 GMT 25.794140 -80.292221 -275 120 103 -192
2022-01-10 14:32:41 GMT 25.794649 -80.293121 -275 118 108 -192
2022-01-10 14:32:40 GMT 25.794870 -80.293579 -275 118 113 256
2022-01-10 14:32:39 GMT 25.795120 -80.294067 -275 118 117 256
2022-01-10 14:32:37 GMT 25.795610 -80.295113 -275 119 126 256
2022-01-10 14:32:36 GMT 25.795879 -80.295639 -300 119 130 -864
2022-01-10 14:32:34 GMT 25.796450 -80.296799 -300 119 132 -864
2022-01-10 14:32:33 GMT 25.796749 -80.297363 -275 119 136 -864
2022-01-10 14:32:32 GMT 25.797070 -80.297974 -275 118 136 -864
2022-01-10 14:32:30 GMT 25.797661 -80.299179 -275 120 140 -864
2022-01-10 14:32:29 GMT 25.798031 -80.299797 -250 118 138 -864
2022-01-10 14:32:28 GMT 25.798361 -80.300407 -250 117 138 -864
2022-01-10 14:32:26 GMT 25.798929 -80.301666 -225 120 136 -864
2022-01-10 14:32:25 GMT 25.799250 -80.302307 -200 121 133 -864
2022-01-10 14:32:24 GMT 25.799570 -80.302841 -200 118 144 -864
2022-01-10 14:32:23 GMT 25.800200 -80.304153 -175 120 139 -864
2022-01-10 14:32:21 GMT 25.800501 -80.304764 -175 121 141 -864
2022-01-10 14:32:20 GMT 25.801189 -80.305969 -150 117 144 -864
2022-01-10 14:32:18 GMT 25.801439 -80.306686 -150 121 143 -864
2022-01-10 14:32:16 GMT 25.802130 -80.307899 -75 121 143 -864
2022-01-10 14:32:15 GMT 25.802450 -80.308517 -75 121 145 -864
2022-01-10 14:32:14 GMT 25.802891 -80.309158 -75 116 139 -864
2022-01-10 14:32:13 GMT 25.803440 -80.310478 -25 119 138 -160
2022-01-10 14:32:11 GMT 25.803740 -80.311157 -25 120 134 -160
2022-01-10 14:32:10 GMT 25.804399 -80.312347 -25 121 135 -160
2022-01-10 14:32:08 GMT 25.804760 -80.312943 0 118 134 -160
2022-01-10 14:32:06 GMT 25.805300 -80.314087 25 120 142 -160
2022-01-10 14:32:05 GMT 25.805599 -80.314690 25 121 147 -160
2022-01-10 14:32:03 GMT 25.806351 -80.316017 50 119 136 -160
2022-01-10 14:32:02 GMT 25.806669 -80.316612 50 118 137 -160
2022-01-10 14:32:00 GMT 25.807230 -80.317863 100 120 139 -160
2022-01-10 14:31:59 GMT 25.807550 -80.318451 100 119 142 -160
2022-01-10 14:31:58 GMT 25.807859 -80.319092 125 120 143 -160
2022-01-10 14:31:57 GMT 25.808559 -80.320351 125 119 141 -160
2022-01-10 14:31:55 GMT 25.808880 -80.320961 125 119 142 -160
2022-01-10 14:31:54 GMT 25.809231 -80.321663 175 119 137 -160
2022-01-10 14:31:53 GMT 25.809811 -80.322830 175 118 148 -160
2022-01-10 14:31:51 GMT 25.810160 -80.323509 200 118 145 -160
2022-01-10 14:31:50 GMT 25.810480 -80.324150 200 118 146 -160
2022-01-10 14:31:49 GMT 25.811140 -80.325523 250 120 138 -160
2022-01-10 14:31:47 GMT 25.811501 -80.326149 250 119 136 -160
2022-01-10 14:31:46 GMT 25.811781 -80.326752 250 120 138 -160
2022-01-10 14:31:44 GMT 25.812450 -80.327988 300 118 137 -160
2022-01-10 14:31:43 GMT 25.812771 -80.328598 300 117 136 -160
2022-01-10 14:31:42 GMT 25.813021 -80.329193 300 119 141 -160
2022-01-10 14:31:40 GMT 25.813660 -80.330490 325 120 139 -160
2022-01-10 14:31:39 GMT 25.813959 -80.331100 325 121 140 -160
2022-01-10 14:31:38 GMT 25.814659 -80.332336 400 119 140 -160
2022-01-10 14:31:36 GMT 25.815010 -80.332970 400 118 139 -160
2022-01-10 14:31:34 GMT 25.815611 -80.334221 425 121 141 -160
2022-01-10 14:31:33 GMT 25.815990 -80.334862 425 120 139 -160
2022-01-10 14:31:32 GMT 25.816380 -80.335571 425 119 130 32
2022-01-10 14:31:31 GMT 25.816660 -80.336128 450 118 135 32
2022-01-10 14:31:29 GMT 25.817289 -80.337387 450 118 133 -992
2022-01-10 14:31:28 GMT 25.817551 -80.337990 500 120 136 -992
2022-01-10 14:31:27 GMT 25.817890 -80.338562 500 118 139 -992
2022-01-10 14:31:25 GMT 25.818520 -80.339851 500 118 135 -992
2022-01-10 14:31:24 GMT 25.818821 -80.340462 500 118 137 -992
2022-01-10 14:31:23 GMT 25.819120 -80.341026 500 118 142 -992
2022-01-10 14:31:22 GMT 25.819731 -80.342300 550 119 142 -992
2022-01-10 14:31:20 GMT 25.820070 -80.342911 550 118 143 -992
2022-01-10 14:31:19 GMT 25.820370 -80.343521 550 118 147 -992
2022-01-10 14:31:17 GMT 25.821011 -80.344856 600 119 148 -992
2022-01-10 14:31:16 GMT 25.821360 -80.345543 600 119 147 -992
2022-01-10 14:31:14 GMT 25.822041 -80.346863 700 119 147 -992
2022-01-10 14:31:13 GMT 25.822380 -80.347481 700 118 150 -992
2022-01-10 14:31:12 GMT 25.823000 -80.348839 700 120 152 -992
2022-01-10 14:31:10 GMT 25.823389 -80.349518 700 119 152 -992
2022-01-10 14:31:09 GMT 25.823721 -80.350159 700 119 156 -992
2022-01-10 14:31:08 GMT 25.824421 -80.351570 800 119 154 -992
2022-01-10 14:31:06 GMT 25.824810 -80.352280 800 119 152 -992
2022-01-10 14:31:05 GMT 25.825109 -80.352913 800 119 159 -992
2022-01-10 14:31:04 GMT 25.825510 -80.353622 800 118 157 -992
2022-01-10 14:31:02 GMT 25.826180 -80.355003 900 119 164 -992
2022-01-10 14:31:01 GMT 25.826590 -80.355759 900 119 161 -992
2022-01-10 14:31:00 GMT 25.826929 -80.356491 900 119 162 -992
2022-01-10 14:30:58 GMT 25.827641 -80.357880 875 119 169 -992
2022-01-10 14:30:57 GMT 25.828011 -80.358612 875 120 171 -992
2022-01-10 14:30:56 GMT 25.828390 -80.359367 875 120 172 -992
2022-01-10 14:30:55 GMT 25.829220 -80.360901 900 119 171 -992
2022-01-10 14:30:53 GMT 25.829611 -80.361649 900 119 171 -992
2022-01-10 14:30:51 GMT 25.830410 -80.363220 1,000 119 168 -992
2022-01-10 14:30:50 GMT 25.830759 -80.363899 1,000 119 175 -992
2022-01-10 14:30:49 GMT 25.831579 -80.365479 1,000 119 172 -992
2022-01-10 14:30:47 GMT 25.831970 -80.366219 1,000 119 175 -992
2022-01-10 14:30:46 GMT 25.832371 -80.366997 1,000 119 176 -992
2022-01-10 14:30:44 GMT 25.833111 -80.368500 1,200 119 183 -992
2022-01-10 14:30:43 GMT 25.833530 -80.369331 1,200 119 182 -992
2022-01-10 14:30:41 GMT 25.834351 -80.370934 1,200 119 184 -992
2022-01-10 14:30:40 GMT 25.834761 -80.371773 1,200 120 184 -992
2022-01-10 14:30:39 GMT 25.835171 -80.372566 1,200 120 186 -992
2022-01-10 14:30:38 GMT 25.835590 -80.373360 1,200 120 188 -992
2022-01-10 14:30:36 GMT 25.836479 -80.375038 1,200 119 186 -992
2022-01-10 14:30:35 GMT 25.836929 -80.375908 1,300 119 182 -992
2022-01-10 14:30:34 GMT 25.837351 -80.376694 1,300 119 185 -992
2022-01-10 14:30:33 GMT 25.838169 -80.378319 1,300 119 189 -992
2022-01-10 14:30:31 GMT 25.838600 -80.379128 1,300 119 191 -992
2022-01-10 14:30:30 GMT 25.839020 -80.379982 1,400 119 192 -992
2022-01-10 14:30:29 GMT 25.839899 -80.381699 1,400 119 191 -992
2022-01-10 14:30:27 GMT 25.840330 -80.382523 1,400 119 194 -992
2022-01-10 14:30:26 GMT 25.840740 -80.383369 1,400 119 196 -992
2022-01-10 14:30:25 GMT 25.841650 -80.385147 1,400 119 194 -992
2022-01-10 14:30:23 GMT 25.842150 -80.386063 1,400 119 190 -992
2022-01-10 14:30:22 GMT 25.842560 -80.386841 1,400 119 194 -992
2022-01-10 14:30:21 GMT 25.843430 -80.388580 1,600 119 195 -992
2022-01-10 14:30:19 GMT 25.843861 -80.389473 1,600 119 195 -992
2022-01-10 14:30:17 GMT 25.844770 -80.391243 1,600 119 193 -992
2022-01-10 14:30:16 GMT 25.845190 -80.392097 1,600 119 193 -992
2022-01-10 14:30:15 GMT 25.845640 -80.392952 1,600 119 194 -992
2022-01-10 14:30:13 GMT 25.846531 -80.394669 1,600 119 194 -992
2022-01-10 14:30:12 GMT 25.846970 -80.395576 1,700 119 192 -1184
2022-01-10 14:30:11 GMT 25.847851 -80.397278 1,700 120 192 -1184
2022-01-10 14:30:09 GMT 25.848280 -80.398148 1,700 120 192 -1184
2022-01-10 14:30:08 GMT 25.848740 -80.399063 1,700 120 185 -1184
2022-01-10 14:29:59 GMT 25.852661 -80.406601 1,800 119 196 -1088
2022-01-10 14:29:56 GMT 25.853760 -80.408730 1,825 119 197 -896
2022-01-10 14:29:53 GMT 25.855362 -80.411835 1,875 119 198 -832
2022-01-10 14:29:47 GMT 25.858698 -80.418182 2,000 120 202 -1088
2022-01-10 14:29:44 GMT 25.860077 -80.420853 2,050 120 204 -1088
2022-01-10 14:29:39 GMT 25.862366 -80.425262 2,125 120 207 -1088
2022-01-10 14:29:36 GMT 25.863739 -80.427849 2,175 120 209 -1152
2022-01-10 14:29:33 GMT 25.865028 -80.430222 2,225 120 211 -1152
2022-01-10 14:29:28 GMT 25.867403 -80.434708 2,325 121 214 -1344
2022-01-10 14:29:24 GMT 25.869415 -80.438370 2,425 120 215 -1536
2022-01-10 14:29:20 GMT 25.871361 -80.442055 2,525 119 216 -1408
2022-01-10 14:29:15 GMT 25.874105 -80.447914 2,675 116 216 -1408
2022-01-10 14:29:12 GMT 25.875362 -80.450874 2,725 114 217 -768
2022-01-10 14:29:06 GMT 25.877132 -80.455894 2,750 108 218 -192
2022-01-10 14:29:02 GMT 25.878389 -80.461700 2,750 98 219 64
2022-01-10 14:28:56 GMT 25.878761 -80.467567 2,750 90 219 0
2022-01-10 14:28:51 GMT 25.878529 -80.473007 2,750 86 218 -64
2022-01-10 14:28:47 GMT 25.878202 -80.478813 2,750 86 218 -64
2022-01-10 14:28:42 GMT 25.877831 -80.484734 2,750 86 218 -192
2022-01-10 14:28:36 GMT 25.877459 -80.490280 2,775 86 218 -128
2022-01-10 14:28:31 GMT 25.877132 -80.495613 2,750 86 218 256
2022-01-10 14:28:22 GMT 25.876387 -80.507233 2,750 85 220 0
2022-01-10 14:28:19 GMT 25.876282 -80.509369 2,750 85 220 -64
2022-01-10 14:28:10 GMT 25.875595 -80.519539 2,750 85 219 64
2022-01-10 14:28:00 GMT 25.874817 -80.531395 2,750 86 218 -64
2022-01-10 14:27:55 GMT 25.874479 -80.537552 2,750 86 218 -64
2022-01-10 14:27:49 GMT 25.874153 -80.543411 2,750 86 218 64
2022-01-10 14:27:37 GMT 25.873453 -80.555511 2,750 86 218 -64
2022-01-10 14:27:26 GMT 25.872570 -80.568558 2,750 84 218 -64
2022-01-10 14:27:22 GMT 25.872162 -80.572380 2,750 81 218 64
2022-01-10 14:27:15 GMT 25.870697 -80.580208 2,750 73 218 -64
2022-01-10 14:27:12 GMT 25.869730 -80.583397 2,750 69 218 -64
2022-01-10 14:27:06 GMT 25.866714 -80.590988 2,750 65 217 0
2022-01-10 14:27:03 GMT 25.865707 -80.593529 2,750 65 217 0
2022-01-10 14:26:54 GMT 25.862469 -80.601463 2,750 65 218 0
2022-01-10 14:26:51 GMT 25.861221 -80.604568 2,750 65 218 0
2022-01-10 14:26:48 GMT 25.859116 -80.609650 2,750 65 218 0
2022-01-10 14:26:41 GMT 25.856976 -80.614929 2,750 65 217 0
2022-01-10 14:26:34 GMT 25.853483 -80.623489 2,750 65 218 64
2022-01-10 14:26:25 GMT 25.850052 -80.631874 2,750 65 218 -64
2022-01-10 14:26:21 GMT 25.848270 -80.636269 2,750 65 217 0
2022-01-10 14:26:14 GMT 25.845291 -80.643379 2,750 65 217 0
2022-01-10 14:26:11 GMT 25.844284 -80.645760 2,750 65 217 0
2022-01-10 14:26:05 GMT 25.841766 -80.651878 2,750 64 217 64
2022-01-10 14:25:54 GMT 25.836502 -80.664520 2,750 66 217 64
2022-01-10 14:25:49 GMT 25.835220 -80.667686 2,750 67 217 -192
2022-01-10 14:25:44 GMT 25.832954 -80.673767 2,750 69 217 -128
2022-01-10 14:25:00 GMT 25.850052 -80.711945 3,200 172 224 -1152
2022-01-10 14:24:57 GMT 25.853348 -80.712456 3,250 173 224 -1152
2022-01-10 14:24:52 GMT 25.858139 -80.712906 3,325 175 224 -960
2022-01-10 14:24:47 GMT 25.864004 -80.713387 3,425 175 224 -896
2022-01-10 14:24:37 GMT 25.873444 -80.714272 3,500 175 224 -832
2022-01-10 14:24:30 GMT 25.882021 -80.715073 3,650 174 225 -832
2022-01-10 14:24:26 GMT 25.885744 -80.715446 3,700 174 225 -704
2022-01-10 14:24:22 GMT 25.889515 -80.715866 3,725 174 226 -448
2022-01-10 14:24:10 GMT 25.903574 -80.717239 3,750 175 229 0
2022-01-10 14:24:01 GMT 25.912125 -80.717949 3,750 176 229 -64
2022-01-10 14:23:55 GMT 25.919495 -80.718315 3,750 179 229 -64
2022-01-10 14:23:51 GMT 25.922752 -80.718246 3,750 184 229 64
2022-01-10 14:23:44 GMT 25.929457 -80.716972 3,750 196 229 -64
2022-01-10 14:23:40 GMT 25.934647 -80.714531 3,750 215 229 -64
2022-01-10 14:23:31 GMT 25.941700 -80.708046 3,750 253 227 0
2022-01-10 14:23:28 GMT 25.943069 -80.706032 3,750 234 228 192
2022-01-10 14:23:23 GMT 25.945587 -80.701057 3,750 248 226 -128
2022-01-10 14:23:19 GMT 25.947418 -80.695358 3,750 254 226 0
2022-01-10 14:23:13 GMT 25.948883 -80.689964 3,750 254 226 0
2022-01-10 14:23:08 GMT 25.950577 -80.683746 3,750 254 226 0
2022-01-10 14:22:58 GMT 25.953756 -80.672394 3,750 253 227 0
2022-01-10 14:22:50 GMT 25.956299 -80.663177 3,750 253 226 64
2022-01-10 14:22:46 GMT 25.957031 -80.660530 3,750 253 226 64
2022-01-10 14:22:36 GMT 25.960556 -80.648041 3,750 253 227 0
2022-01-10 14:22:25 GMT 25.963673 -80.637009 3,800 253 229 -896
2022-01-10 14:22:16 GMT 25.966965 -80.625084 4,000 254 229 -1088
2022-01-10 14:22:08 GMT 25.969437 -80.615967 4,125 254 230 -896
2022-01-10 14:22:05 GMT 25.970078 -80.613686 4,150 254 231 -832
2022-01-10 14:22:01 GMT 25.971313 -80.609123 4,200 254 233 -640
2022-01-10 14:21:55 GMT 25.973541 -80.600983 4,250 254 237 -448
2022-01-10 14:21:49 GMT 25.975159 -80.595078 4,300 254 241 -256
2022-01-10 14:21:44 GMT 25.976801 -80.589104 4,300 254 245 -256
2022-01-10 14:21:40 GMT 25.978149 -80.584244 4,325 254 249 -128
2022-01-10 14:21:34 GMT 25.980433 -80.575790 4,325 254 255 -256
2022-01-10 14:21:30 GMT 25.981613 -80.571503 4,350 254 260 -192
2022-01-10 14:21:25 GMT 25.983503 -80.564537 4,375 254 264 -192
2022-01-10 14:21:22 GMT 25.984110 -80.562370 4,375 254 266 -192
2022-01-10 14:21:16 GMT 25.986786 -80.552483 5,000 254 273 -1664
2022-01-10 14:21:13 GMT 25.987926 -80.548325 4,450 254 275 -1664
2022-01-10 14:21:08 GMT 25.989349 -80.543106 4,550 254 275 -1472
2022-01-10 14:21:02 GMT 25.991547 -80.535019 4,725 254 275 -1728
2022-01-10 14:20:59 GMT 25.993187 -80.529152 4,850 254 274 -1728
2022-01-10 14:20:56 GMT 25.993885 -80.526405 4,975 254 273 -1664
2022-01-10 14:20:52 GMT 25.995621 -80.520195 5,025 254 273 -1536
2022-01-10 14:20:48 GMT 25.996765 -80.515945 5,225 254 273 -1408
2022-01-10 14:20:44 GMT 25.998632 -80.509026 5,225 254 273 -1344
2022-01-10 14:20:40 GMT 25.999420 -80.505997 5,275 254 273 -1408
2022-01-10 14:20:35 GMT 26.001240 -80.499207 5,400 254 273 -1472
2022-01-10 14:20:31 GMT 26.003311 -80.491280 5,525 255 272 -1536
2022-01-10 14:20:27 GMT 26.004452 -80.486794 5,625 255 271 -1408
2022-01-10 14:20:24 GMT 26.005663 -80.481880 5,700 257 270 -1216
2022-01-10 14:20:19 GMT 26.006561 -80.477707 5,750 258 271 -960
2022-01-10 14:20:16 GMT 26.007568 -80.472214 5,800 263 272 -448
2022-01-10 14:20:10 GMT 26.008209 -80.463242 5,825 272 273 -64
2022-01-10 14:20:07 GMT 26.007990 -80.459381 5,825 277 273 0
2022-01-10 14:20:04 GMT 26.007618 -80.456047 5,825 279 272 0
2022-01-10 14:19:59 GMT 26.006653 -80.448997 5,825 279 272 0
2022-01-10 14:19:56 GMT 26.006083 -80.444801 5,825 279 271 -64
2022-01-10 14:19:52 GMT 26.005289 -80.439201 5,825 279 271 64
2022-01-10 14:19:49 GMT 26.004639 -80.434486 5,825 279 271 -64
2022-01-10 14:19:43 GMT 26.003614 -80.427528 5,825 279 271 64
2022-01-10 14:19:40 GMT 26.002945 -80.422821 5,825 280 272 -64
2022-01-10 14:19:35 GMT 26.002029 -80.416084 5,825 280 273 0
2022-01-10 14:19:32 GMT 26.001240 -80.410782 5,825 280 273 0
2022-01-10 14:19:28 GMT 26.000448 -80.405136 5,825 280 273 -64
2022-01-10 14:19:24 GMT 25.999832 -80.400902 5,825 280 274 0
2022-01-10 14:19:20 GMT 25.999052 -80.395569 5,825 279 274 64
2022-01-10 14:19:17 GMT 25.998260 -80.389977 5,825 279 274 0
2022-01-10 14:19:13 GMT 25.997702 -80.386009 5,825 279 274 0
2022-01-10 14:19:10 GMT 25.996948 -80.380592 5,825 279 274 64
2022-01-10 14:19:06 GMT 25.996262 -80.375511 5,825 279 273 64
2022-01-10 14:19:02 GMT 25.995621 -80.371155 5,825 279 273 -64
2022-01-10 14:18:52 GMT 25.993607 -80.356644 5,825 279 273 64
2022-01-10 14:18:45 GMT 25.992096 -80.345612 5,825 279 272 -64
2022-01-10 14:18:42 GMT 25.991730 -80.342911 5,825 278 271 -64
2022-01-10 14:18:39 GMT 25.991135 -80.338303 5,825 278 271 0
2022-01-10 14:18:34 GMT 25.990301 -80.331345 5,825 277 271 0
2022-01-10 14:18:31 GMT 25.989899 -80.327675 5,825 277 270 0
2022-01-10 14:18:28 GMT 25.989555 -80.323524 5,825 275 270 0
2022-01-10 14:18:23 GMT 25.989532 -80.311874 5,825 264 271 -64
2022-01-10 14:18:17 GMT 25.989807 -80.308502 5,825 265 271 -128
2022-01-10 14:18:11 GMT 25.990625 -80.300339 5,825 264 271 0
2022-01-10 14:18:08 GMT 25.991226 -80.294411 5,825 264 271 0
2022-01-10 14:18:01 GMT 25.992163 -80.285660 5,825 264 271 -64
2022-01-10 14:17:58 GMT 25.992599 -80.281456 5,825 264 271 64
2022-01-10 14:17:52 GMT 25.993513 -80.272713 5,825 264 272 64
2022-01-10 14:17:49 GMT 25.993792 -80.269760 5,825 264 272 64
2022-01-10 14:17:46 GMT 25.994396 -80.264053 5,825 264 272 64
2022-01-10 14:17:41 GMT 25.995142 -80.256714 5,825 264 272 64
2022-01-10 14:17:38 GMT 25.995575 -80.252380 5,825 264 272 64
2022-01-10 14:17:30 GMT 25.996536 -80.242691 5,825 265 273 -64
2022-01-10 14:17:26 GMT 25.996948 -80.237511 5,825 266 273 -128
2022-01-10 14:17:19 GMT 25.997543 -80.227196 5,825 269 275 64
2022-01-10 14:17:15 GMT 25.997452 -80.221443 5,825 282 276 0
2022-01-10 14:17:10 GMT 25.996120 -80.213188 5,825 287 276 0
2022-01-10 14:17:05 GMT 25.994305 -80.207695 5,825 294 277 64
2022-01-10 14:16:58 GMT 25.989788 -80.199242 5,825 312 278 -64
2022-01-10 14:16:49 GMT 25.980944 -80.189896 5,825 327 278 64
2022-01-10 14:16:46 GMT 25.978592 -80.188225 5,825 334 278 64
2022-01-10 14:16:38 GMT 25.968475 -80.183250 5,825 342 277 64
2022-01-10 14:16:35 GMT 25.959249 -80.180016 5,825 343 276 64
2022-01-10 14:16:26 GMT 25.953810 -80.179123 5,900 343 285 -128
2022-01-10 14:16:25 GMT 25.952560 -80.178658 5,900 343 285 -128
2022-01-10 14:16:24 GMT 25.951300 -80.178200 5,900 343 285 -128
2022-01-10 14:16:23 GMT 25.950050 -80.177742 5,900 343 285 -128
2022-01-10 14:16:22 GMT 25.947540 -80.176819 5,900 343 285 -128
2022-01-10 14:16:20 GMT 25.946280 -80.176361 5,900 343 285 -128
2022-01-10 14:16:19 GMT 25.945021 -80.175903 5,900 343 285 -128
2022-01-10 14:16:17 GMT 25.942511 -80.174988 5,900 343 285 -128
2022-01-10 14:16:14 GMT 25.938749 -80.173607 5,900 343 285 -128
2022-01-10 14:16:13 GMT 25.937490 -80.173149 5,900 343 285 -128
2022-01-10 14:16:12 GMT 25.936239 -80.172691 5,900 343 285 -128
2022-01-10 14:16:10 GMT 25.933729 -80.171768 5,900 343 285 -128
2022-01-10 14:16:09 GMT 25.932470 -80.171310 5,900 343 285 -128
2022-01-10 14:16:08 GMT 25.931219 -80.170853 5,900 343 285 -128
2022-01-10 14:16:07 GMT 25.929960 -80.170387 5,900 343 285 -128
2022-01-10 14:16:05 GMT 25.927450 -80.169472 5,900 343 285 -128
2022-01-10 14:16:04 GMT 25.926201 -80.169006 5,900 343 285 -128
2022-01-10 14:16:03 GMT 25.923691 -80.168098 5,900 343 285 -128
2022-01-10 14:16:01 GMT 25.922430 -80.167641 5,900 343 285 -128
2022-01-10 14:15:59 GMT 25.919920 -80.166718 5,900 343 285 -128
2022-01-10 14:15:58 GMT 25.918671 -80.166260 5,900 343 285 -128
2022-01-10 14:15:56 GMT 25.916161 -80.165337 5,900 343 285 -128
2022-01-10 14:15:55 GMT 25.914850 -80.164391 5,900 347 280 -128
2022-01-10 14:15:54 GMT 25.912340 -80.163673 5,900 347 280 -128
2022-01-10 14:15:52 GMT 25.911079 -80.163300 5,900 347 280 -128
2022-01-10 14:15:51 GMT 25.909830 -80.162941 5,900 347 280 -128
2022-01-10 14:15:50 GMT 25.908381 -80.162209 5,900 351 273 928
2022-01-10 14:15:48 GMT 25.905890 -80.161652 5,900 351 273 928
2022-01-10 14:15:47 GMT 25.904650 -80.161369 5,900 351 273 928
2022-01-10 14:15:46 GMT 25.903410 -80.161087 5,900 351 273 928
2022-01-10 14:15:45 GMT 25.902180 -80.159508 5,800 357 274 928
2022-01-10 14:15:43 GMT 25.899639 -80.159370 5,800 357 274 2112
2022-01-10 14:15:42 GMT 25.898380 -80.159302 5,800 357 274 2112
2022-01-10 14:15:41 GMT 25.895981 -80.158630 5,800 359 277 2112
2022-01-10 14:15:39 GMT 25.894690 -80.158600 5,800 359 277 2112
2022-01-10 14:15:38 GMT 25.893400 -80.158577 5,800 359 277 2112
2022-01-10 14:15:37 GMT 25.892111 -80.158562 5,800 359 277 2112
2022-01-10 14:15:35 GMT 25.889580 -80.158371 5,600 0 279 2112
2022-01-10 14:15:34 GMT 25.888281 -80.158363 5,600 0 279 2112
2022-01-10 14:15:33 GMT 25.885460 -80.157799 5,600 2 268 2112
2022-01-10 14:15:31 GMT 25.884220 -80.157867 5,600 2 268 2112
2022-01-10 14:15:30 GMT 25.881741 -80.158020 5,600 2 268 2112
2022-01-10 14:15:28 GMT 25.880501 -80.158089 5,600 2 268 2112
2022-01-10 14:15:27 GMT 25.879419 -80.158112 5,500 1 272 2112
2022-01-10 14:15:25 GMT 25.876900 -80.158241 5,500 1 272 2112
2022-01-10 14:15:24 GMT 25.875641 -80.158302 5,500 1 272 2112
2022-01-10 14:15:22 GMT 25.873280 -80.158669 5,300 359 274 2112
2022-01-10 14:15:21 GMT 25.872009 -80.158684 5,300 359 274 2112
2022-01-10 14:15:20 GMT 25.870729 -80.158691 5,300 359 274 2112
2022-01-10 14:15:19 GMT 25.869459 -80.158699 5,300 359 274 2112
2022-01-10 14:15:17 GMT 25.866989 -80.159126 5,100 356 274 2112
2022-01-10 14:15:16 GMT 25.865721 -80.159073 5,100 356 274 2112
2022-01-10 14:15:14 GMT 25.863180 -80.158928 5,100 356 274 2112
2022-01-10 14:15:13 GMT 25.862040 -80.159622 4,600 353 275 2112
2022-01-10 14:15:12 GMT 25.860781 -80.159462 4,600 353 275 2112
2022-01-10 14:15:10 GMT 25.857189 -80.159538 4,600 352 277 2112
2022-01-10 14:15:08 GMT 25.855909 -80.159340 4,600 352 277 2112
2022-01-10 14:15:07 GMT 25.854639 -80.159149 4,600 352 277 2112
2022-01-10 14:15:05 GMT 25.852100 -80.158752 4,600 352 277 2112
2022-01-10 14:15:04 GMT 25.851061 -80.159126 4,400 355 278 2112
2022-01-10 14:15:03 GMT 25.849779 -80.158928 4,400 355 278 2112
2022-01-10 14:15:01 GMT 25.847219 -80.158524 4,400 355 278 2112
2022-01-10 14:15:00 GMT 25.845940 -80.158318 4,400 355 278 2112
2022-01-10 14:14:59 GMT 25.845209 -80.157806 4,200 2 285 2112
2022-01-10 14:14:58 GMT 25.843880 -80.157768 4,200 2 285 2112
2022-01-10 14:14:56 GMT 25.841240 -80.157692 4,200 2 285 2112
2022-01-10 14:14:55 GMT 25.840200 -80.156723 4,000 11 286 2112
2022-01-10 14:14:53 GMT 25.837570 -80.157097 4,000 11 286 2112
2022-01-10 14:14:52 GMT 25.836260 -80.157288 4,000 11 286 2112
2022-01-10 14:14:51 GMT 25.834949 -80.157478 4,000 11 286 2112
2022-01-10 14:14:49 GMT 25.832790 -80.157120 3,500 21 293 2112
2022-01-10 14:14:48 GMT 25.831480 -80.157562 3,500 21 293 2112
2022-01-10 14:14:47 GMT 25.830179 -80.157990 3,500 21 293 2112
2022-01-10 14:14:45 GMT 25.827410 -80.158012 3,500 31 285 2112
2022-01-10 14:14:44 GMT 25.826229 -80.158661 3,500 31 285 2112
2022-01-10 14:14:42 GMT 25.823870 -80.159973 3,500 31 285 416
2022-01-10 14:14:41 GMT 25.822041 -80.159554 3,200 42 273 416
2022-01-10 14:14:40 GMT 25.820040 -80.161263 3,200 42 273 416
2022-01-10 14:14:38 GMT 25.819031 -80.162117 3,200 42 273 416
2022-01-10 14:14:37 GMT 25.816629 -80.162491 3,200 54 246 416
2022-01-10 14:14:35 GMT 25.815140 -80.164391 3,200 54 246 416
2022-01-10 14:14:34 GMT 25.814390 -80.165337 3,200 54 246 416
2022-01-10 14:14:32 GMT 25.811270 -80.167152 3,200 54 246 416
2022-01-10 14:14:31 GMT 25.810810 -80.168152 3,100 67 219 416
2022-01-10 14:14:30 GMT 25.810350 -80.169159 3,100 67 219 416
2022-01-10 14:14:29 GMT 25.809900 -80.170158 3,100 67 219 416
2022-01-10 14:14:27 GMT 25.808140 -80.171577 3,000 77 229 -640
2022-01-10 14:14:26 GMT 25.807880 -80.172722 3,000 77 229 -640
2022-01-10 14:14:24 GMT 25.807369 -80.175003 3,000 77 229 -640
2022-01-10 14:14:23 GMT 25.806950 -80.175789 3,000 80 242 1408
2022-01-10 14:14:22 GMT 25.806749 -80.177010 3,000 80 242 1408
2022-01-10 14:14:20 GMT 25.806360 -80.179451 3,000 80 242 1408
2022-01-10 14:14:19 GMT 25.806110 -80.180687 3,000 82 239 1408
2022-01-10 14:14:18 GMT 25.805840 -80.181892 2,800 84 237 1408
2022-01-10 14:14:17 GMT 25.805660 -80.183113 2,800 85 235 1408
2022-01-10 14:14:15 GMT 25.805441 -80.185501 2,800 86 235 1408
2022-01-10 14:14:14 GMT 25.805349 -80.186630 2,800 87 237 1408
2022-01-10 14:14:13 GMT 25.805241 -80.189133 2,800 87 228 1408
2022-01-10 14:14:11 GMT 25.805201 -80.190308 2,800 87 227 1408
2022-01-10 14:14:10 GMT 25.805149 -80.191521 2,800 87 223 1408
2022-01-10 14:14:09 GMT 25.805111 -80.192673 2,600 87 222 1408
2022-01-10 14:14:07 GMT 25.805019 -80.194962 2,600 87 220 1408
2022-01-10 14:14:06 GMT 25.804960 -80.196068 2,600 87 222 1408
2022-01-10 14:14:04 GMT 25.804880 -80.198357 2,200 86 220 1408
2022-01-10 14:14:03 GMT 25.804810 -80.199471 2,200 87 221 1408
2022-01-10 14:14:02 GMT 25.804750 -80.200607 2,200 87 221 1408
2022-01-10 14:14:00 GMT 25.804649 -80.202858 2,200 87 221 1408
2022-01-10 14:13:59 GMT 25.804581 -80.204041 2,200 87 218 1408
2022-01-10 14:13:58 GMT 25.804501 -80.206284 2,200 87 220 1408
2022-01-10 14:13:56 GMT 25.804461 -80.207428 2,200 87 218 1408
2022-01-10 14:13:55 GMT 25.804411 -80.208511 1,600 87 219 1408
2022-01-10 14:13:53 GMT 25.804310 -80.210777 1,600 87 218 1408
2022-01-10 14:13:52 GMT 25.804260 -80.211922 1,600 87 216 1408
2022-01-10 14:13:51 GMT 25.804220 -80.212982 1,600 86 218 1408
2022-01-10 14:13:49 GMT 25.804110 -80.215218 1,600 87 218 1408
2022-01-10 14:13:48 GMT 25.804020 -80.216293 1,600 87 220 1408
2022-01-10 14:13:47 GMT 25.803930 -80.217529 1,600 88 213 1408
2022-01-10 14:13:45 GMT 25.803909 -80.219627 1,600 87 221 1408
2022-01-10 14:13:44 GMT 25.803890 -80.220741 1,600 87 221 1408
2022-01-10 14:13:43 GMT 25.803820 -80.221939 1,600 87 216 1408
2022-01-10 14:13:41 GMT 25.803761 -80.224121 1,400 86 215 3072
2022-01-10 14:13:40 GMT 25.803720 -80.225197 1,400 86 216 3072
2022-01-10 14:13:39 GMT 25.803659 -80.226303 1,400 86 215 3072
2022-01-10 14:13:37 GMT 25.803551 -80.228432 1,400 86 215 3072
2022-01-10 14:13:36 GMT 25.803490 -80.229530 1,400 87 213 3072
2022-01-10 14:13:34 GMT 25.803391 -80.231743 1,400 87 206 3072
2022-01-10 14:13:33 GMT 25.803360 -80.232849 1,400 86 200 3072
2022-01-10 14:13:32 GMT 25.803320 -80.233818 1,400 86 203 3072
2022-01-10 14:13:31 GMT 25.803209 -80.235909 1,400 87 197 3072
2022-01-10 14:13:29 GMT 25.803129 -80.236923 1,400 87 195 3072
2022-01-10 14:13:28 GMT 25.803150 -80.237961 1,400 86 190 3072
2022-01-10 14:13:26 GMT 25.803049 -80.239929 1,325 86 186 3072
2022-01-10 14:13:25 GMT 25.803030 -80.240837 1,325 86 190 3072
2022-01-10 14:13:23 GMT 25.802891 -80.242851 1,200 87 173 3072
2022-01-10 14:13:22 GMT 25.802830 -80.243599 1,200 88 184 3072
2022-01-10 14:13:21 GMT 25.802811 -80.244568 1,200 87 181 3072
2022-01-10 14:13:19 GMT 25.802799 -80.246460 1,200 86 176 3072
2022-01-10 14:13:18 GMT 25.802719 -80.247307 1,150 87 177 3072
2022-01-10 14:13:17 GMT 25.802700 -80.248230 1,150 87 174 3072
2022-01-10 14:13:15 GMT 25.802620 -80.250038 1,150 87 168 3072
2022-01-10 14:13:14 GMT 25.802580 -80.250908 1,100 87 167 3072
2022-01-10 14:13:13 GMT 25.802521 -80.252617 1,100 88 164 3072
2022-01-10 14:13:11 GMT 25.802481 -80.253448 1,100 88 163 3072
2022-01-10 14:13:10 GMT 25.802450 -80.254318 1,100 88 159 3072
2022-01-10 14:13:09 GMT 25.802429 -80.255096 1,050 88 161 3072
2022-01-10 14:13:08 GMT 25.802420 -80.256813 975 87 153 3072
2022-01-10 14:13:06 GMT 25.802370 -80.257607 975 88 151 3072
2022-01-10 14:13:05 GMT 25.802370 -80.258423 1,000 87 148 3072
2022-01-10 14:13:03 GMT 25.802311 -80.259918 850 87 150 3072
2022-01-10 14:13:02 GMT 25.802259 -80.261520 825 88 145 3072
2022-01-10 14:13:00 GMT 25.802240 -80.262222 800 89 148 3072
2022-01-10 14:12:59 GMT 25.802240 -80.263062 675 88 140 3072
2022-01-10 14:12:57 GMT 25.802210 -80.264458 675 87 148 3072
2022-01-10 14:12:56 GMT 25.802231 -80.265198 650 86 152 3072
2022-01-10 14:12:55 GMT 25.802160 -80.265999 600 88 147 3072
2022-01-10 14:12:54 GMT 25.802090 -80.267487 475 89 152 3072
2022-01-10 14:12:52 GMT 25.802120 -80.268311 475 86 144 3072
2022-01-10 14:12:51 GMT 25.802031 -80.269791 250 87 157 3072
2022-01-10 14:12:49 GMT 25.801991 -80.270653 250 87 146 3072
2022-01-10 14:12:48 GMT 25.801950 -80.271378 250 87 149 3072
2022-01-10 14:12:46 GMT 25.801889 -80.272926 50 87 150 3072
2022-01-10 14:12:45 GMT 25.801861 -80.273682 50 87 153 3072
2022-01-10 14:12:44 GMT 25.801849 -80.274460 50 87 154 3072
2022-01-10 14:12:42 GMT 25.801769 -80.276016 -50 88 159 3072
2022-01-10 14:12:41 GMT 25.801790 -80.276840 -100 87 158 0
2022-01-10 14:12:40 GMT 25.801790 -80.277649 -150 85 157 0
2022-01-10 14:12:39 GMT 25.801649 -80.279228 -225 87 163 0
2022-01-10 14:12:37 GMT 25.801611 -80.280037 -225 87 164 0
2022-01-10 14:12:36 GMT 25.801580 -80.280884 -250 87 162 0
2022-01-10 14:12:34 GMT 25.801500 -80.282516 -275 87 158 0
2022-01-10 14:12:33 GMT 25.801470 -80.283363 -275 86 154 0
2022-01-10 14:12:32 GMT 25.801451 -80.284126 -275 86 153 0
2022-01-10 14:12:31 GMT 25.801350 -80.285690 -275 87 148 0
2022-01-10 14:12:29 GMT 25.801300 -80.286438 -275 87 146 0
2022-01-10 14:12:28 GMT 25.801279 -80.287209 -275 87 141 0
2022-01-10 14:12:27 GMT 25.801229 -80.287941 -275 88 137 0
2022-01-10 14:12:25 GMT 25.801220 -80.289352 -275 87 131 0
2022-01-10 14:12:24 GMT 25.801201 -80.290009 -275 86 129 0
2022-01-10 14:12:23 GMT 25.801130 -80.291351 -275 87 120 0
2022-01-10 14:12:21 GMT 25.801090 -80.291939 -275 87 119 0
2022-01-10 14:12:20 GMT 25.801060 -80.293152 -275 87 111 0
2022-01-10 14:12:18 GMT 25.801050 -80.293739 -275 87 107 0
2022-01-10 14:12:17 GMT 25.801020 -80.294830 -275 85 98 0
2022-01-10 14:12:15 GMT 25.800970 -80.295349 -275 86 94 0
2022-01-10 14:12:14 GMT 25.800940 -80.295830 -275 87 91 0
2022-01-10 14:12:13 GMT 25.800890 -80.296730 -275 87 84 0
2022-01-10 14:12:11 GMT 25.800871 -80.297157 -275 87 80 0
2022-01-10 14:12:10 GMT 25.800871 -80.297562 -275 86 77 0
2022-01-10 14:12:09 GMT 25.800800 -80.298370 0 88 63
2022-01-10 14:12:07 GMT 25.800791 -80.298698 0 88 59
2022-01-10 14:12:06 GMT 25.800810 -80.299004 0 85 55
2022-01-10 14:12:04 GMT 25.800779 -80.299583 0 85 45
2022-01-10 14:12:03 GMT 25.800760 -80.299828 0 85 38
2022-01-10 14:12:02 GMT 25.800751 -80.300041 0 85 33
2022-01-10 14:12:00 GMT 25.800690 -80.300461 0 92 18
2022-01-10 14:11:59 GMT 25.800699 -80.300583 0 92 14
2022-01-10 14:11:58 GMT 25.800680 -80.300682 0 99 12
2022-01-10 14:11:56 GMT 25.800690 -80.300812 0 90 8
2022-01-10 14:11:55 GMT 25.800711 -80.300850 0 82 8
2022-01-10 14:11:54 GMT 25.800739 -80.300949 0 77 5
2022-01-10 14:11:51 GMT 25.800720 -80.301003 0 91 3
2022-01-10 14:11:50 GMT 25.800711 -80.301010 0 98 4
2022-01-10 14:11:48 GMT 25.800690 -80.301041 0 113 4
2022-01-10 14:11:47 GMT 25.800671 -80.301064 0 115 5
2022-01-10 14:11:46 GMT 25.800711 -80.301079 0 92 3
2022-01-10 14:11:44 GMT 25.800730 -80.301102 0 84 5
2022-01-10 14:11:43 GMT 25.800739 -80.301147 0 86 3
2022-01-10 14:11:42 GMT 25.800711 -80.301163 0 82 5
2022-01-10 14:11:40 GMT 25.800711 -80.301201 0 76 3
2022-01-10 14:11:39 GMT 25.800720 -80.301208 0 60 4
2022-01-10 14:11:36 GMT 25.800730 -80.301262 0 55 3
2022-01-10 14:11:35 GMT 25.800730 -80.301292 0 32 7
2022-01-10 14:11:34 GMT 25.800699 -80.301300 0 38 6
2022-01-10 14:11:33 GMT 25.800671 -80.301353 0 35 4
2022-01-10 14:11:32 GMT 25.800631 -80.301338 0 15 3
2022-01-10 14:11:30 GMT 25.800631 -80.301338 0 356 5
2022-01-10 14:11:29 GMT 25.800610 -80.301331 0 0 5
2022-01-10 14:11:27 GMT 25.800560 -80.301338 0 7 5
2022-01-10 14:11:26 GMT 25.800529 -80.301338 0 18 4
2022-01-10 14:11:24 GMT 25.800510 -80.301323 0 354 6
2022-01-10 14:11:23 GMT 25.800489 -80.301308 0 353 6
2022-01-10 14:11:22 GMT 25.800440 -80.301308 0 345 7
2022-01-10 14:11:20 GMT 25.800390 -80.301323 0 339 6
2022-01-10 14:11:19 GMT 25.800369 -80.301300 0 341 7
2022-01-10 14:11:18 GMT 25.800341 -80.301277 0 332 6
2022-01-10 14:11:16 GMT 25.800280 -80.301277 0 319 6
2022-01-10 14:11:15 GMT 25.800261 -80.301270 0 314 6
2022-01-10 14:11:14 GMT 25.800211 -80.301231 0 298 5
2022-01-10 14:11:12 GMT 25.800190 -80.301224 0 286 7
2022-01-10 14:11:11 GMT 25.800159 -80.301201 0 281 7
2022-01-10 14:11:09 GMT 25.800159 -80.301140 0 285 7
2022-01-10 14:11:08 GMT 25.800150 -80.301079 0 281 5
2022-01-10 14:11:07 GMT 25.800131 -80.301041 0 281 5
2022-01-10 14:11:05 GMT 25.800119 -80.301018 0 283 6
2022-01-10 14:11:04 GMT 25.800131 -80.300987 0 287 6
2022-01-10 14:11:03 GMT 25.800119 -80.300957 0 288 6
2022-01-10 14:11:01 GMT 25.800110 -80.300903 0 297 5
2022-01-10 14:11:00 GMT 25.800100 -80.300858 0 299 5
2022-01-10 14:10:58 GMT 25.800060 -80.300827 0 290 7
2022-01-10 14:10:57 GMT 25.800070 -80.300797 0 291 7
2022-01-10 14:10:56 GMT 25.800039 -80.300751 0 284 5
2022-01-10 14:10:55 GMT 25.800020 -80.300728 0 279 5
2022-01-10 14:10:54 GMT 25.800011 -80.300690 0 281 7
2022-01-10 14:10:52 GMT 25.800020 -80.300652 0 286 6
2022-01-10 14:10:51 GMT 25.799999 -80.300598 0 286 8
2022-01-10 14:10:49 GMT 25.799980 -80.300552 0 283 6
2022-01-10 14:10:47 GMT 25.799980 -80.300491 0 290 5
2022-01-10 14:10:46 GMT 25.799971 -80.300468 0 293 6
2022-01-10 14:10:45 GMT 25.799959 -80.300453 0 288 7
2022-01-10 14:10:43 GMT 25.799919 -80.300407 0 282 9
2022-01-10 14:10:42 GMT 25.799931 -80.300339 0 289 8
2022-01-10 14:10:41 GMT 25.799910 -80.300293 0 288 7
2022-01-10 14:10:39 GMT 25.799891 -80.300217 0 283 8
2022-01-10 14:10:38 GMT 25.799870 -80.300179 0 284 8
2022-01-10 14:10:37 GMT 25.799879 -80.300133 0 289 7
2022-01-10 14:10:36 GMT 25.799841 -80.300056 0 283 6
2022-01-10 14:10:34 GMT 25.799841 -80.300049 0 282 8
2022-01-10 14:10:33 GMT 25.799829 -80.300011 0 278 8
2022-01-10 14:10:31 GMT 25.799810 -80.299927 0 284 8
2022-01-10 14:10:29 GMT 25.799810 -80.299828 0 291 6
2022-01-10 14:10:28 GMT 25.799770 -80.299782 0 282 5
2022-01-10 14:10:26 GMT 25.799770 -80.299751 0 284 6
2022-01-10 14:10:25 GMT 25.799770 -80.299721 0 285 7
2022-01-10 14:10:23 GMT 25.799749 -80.299637 0 285 5
2022-01-10 14:10:22 GMT 25.799730 -80.299583 0 295 4
2022-01-10 14:10:20 GMT 25.799740 -80.299561 0 297 3
2022-01-10 14:10:19 GMT 25.799730 -80.299553 0 297 3
2022-01-10 14:10:17 GMT 25.799700 -80.299492 0 297 0
2022-01-10 14:10:16 GMT 25.799709 -80.299492 0 297 1
2022-01-10 14:10:15 GMT 25.799681 -80.299500 0 297 2
2022-01-10 14:10:14 GMT 25.799700 -80.299461 0 297 1
2022-01-10 14:10:12 GMT 25.799681 -80.299461 0 297 0
2022-01-10 14:10:11 GMT 25.799690 -80.299454 0 297 1
2022-01-10 14:10:08 GMT 25.799681 -80.299454 0 297 0
2022-01-10 14:10:07 GMT 25.799669 -80.299454 0 298 3
2022-01-10 14:10:04 GMT 25.799700 -80.299461 0 300 0
2022-01-10 14:10:03 GMT 25.799690 -80.299454 0 300 0
2022-01-10 14:10:00 GMT 25.799700 -80.299454 0 300 0
2022-01-10 14:09:59 GMT 25.799700 -80.299454 0 298 0
2022-01-10 14:09:57 GMT 25.799700 -80.299454 0 298 0
2022-01-10 14:09:56 GMT 25.799690 -80.299454 0 298 1
2022-01-10 14:09:55 GMT 25.799700 -80.299469 0 298 1
2022-01-10 14:09:53 GMT 25.799709 -80.299469 0 302 2
2022-01-10 14:09:52 GMT 25.799700 -80.299438 0 302 0
2022-01-10 14:09:51 GMT 25.799700 -80.299431 0 304 1
2022-01-10 14:09:49 GMT 25.799700 -80.299408 0 299 1
2022-01-10 14:09:48 GMT 25.799709 -80.299408 0 294 2
2022-01-10 14:09:46 GMT 25.799709 -80.299438 0 283 1
2022-01-10 14:09:45 GMT 25.799721 -80.299438 0 278 3
2022-01-10 14:09:43 GMT 25.799690 -80.299461 0 278 0
2022-01-10 14:09:42 GMT 25.799681 -80.299469 0 280 3
2022-01-10 14:09:39 GMT 25.799700 -80.299438 0 287 3
2022-01-10 14:09:38 GMT 25.799681 -80.299438 0 274 6
2022-01-10 14:09:37 GMT 25.799690 -80.299393 0 279 4
2022-01-10 14:09:35 GMT 25.799690 -80.299347 0 282 7
2022-01-10 14:09:34 GMT 25.799669 -80.299316 0 277 7
2022-01-10 14:09:33 GMT 25.799660 -80.299294 0 272 8
2022-01-10 14:09:31 GMT 25.799641 -80.299210 0 260 5
2022-01-10 14:09:30 GMT 25.799660 -80.299156 0 270 3
2022-01-10 14:09:28 GMT 25.799681 -80.299156 0 282 7
2022-01-10 14:09:27 GMT 25.799669 -80.299110 0 278 5
2022-01-10 14:09:26 GMT 25.799641 -80.299080 0 265 4
2022-01-10 14:09:25 GMT 25.799650 -80.299072 0 268 5
2022-01-10 14:09:23 GMT 25.799650 -80.299026 0 269 6
2022-01-10 14:09:22 GMT 25.799650 -80.299011 0 270 8
2022-01-10 14:09:19 GMT 25.799650 -80.298912 0 263 5
2022-01-10 14:09:18 GMT 25.799641 -80.298897 0 255 7
2022-01-10 14:09:16 GMT 25.799650 -80.298813 0 253 7
2022-01-10 14:09:15 GMT 25.799660 -80.298767 0 255 6
2022-01-10 14:09:14 GMT 25.799669 -80.298729 0 262 5
2022-01-10 14:09:12 GMT 25.799690 -80.298691 0 270 5
2022-01-10 14:09:11 GMT 25.799700 -80.298668 0 271 6
2022-01-10 14:09:09 GMT 25.799681 -80.298599 0 269 6
2022-01-10 14:09:08 GMT 25.799709 -80.298561 0 281 4
2022-01-10 14:09:07 GMT 25.799700 -80.298523 0 265 4
2022-01-10 14:09:05 GMT 25.799690 -80.298492 0 259 2
2022-01-10 14:09:04 GMT 25.799681 -80.298492 0 264 5
2022-01-10 14:09:03 GMT 25.799709 -80.298439 0 272 4
2022-01-10 14:09:01 GMT 25.799690 -80.298424 0 261 5
2022-01-10 14:09:00 GMT 25.799690 -80.298378 0 262 2
2022-01-10 14:08:56 GMT 25.799700 -80.298347 0 263 2
2022-01-10 14:08:54 GMT 25.799721 -80.298332 0 263 2
2022-01-10 14:08:53 GMT 25.799690 -80.298340 0 261 3
2022-01-10 14:08:52 GMT 25.799700 -80.298332 0 253 3
2022-01-10 14:08:50 GMT 25.799681 -80.298286 0 244 1
2022-01-10 14:08:49 GMT 25.799669 -80.298279 0 243 2
2022-01-10 14:08:47 GMT 25.799690 -80.298264 0 243 2
2022-01-10 14:08:46 GMT 25.799690 -80.298233 0 243 0
2022-01-10 14:08:45 GMT 25.799700 -80.298218 0 243 0
2022-01-10 14:08:42 GMT 25.799690 -80.298210 0 244 1
2022-01-10 14:08:41 GMT 25.799709 -80.298218 0 243 3
2022-01-10 14:08:40 GMT 25.799709 -80.298187 0 241 2
2022-01-10 14:08:38 GMT 25.799690 -80.298172 0 236 2
2022-01-10 14:08:37 GMT 25.799669 -80.298172 0 239 5
2022-01-10 14:08:35 GMT 25.799721 -80.298141 0 279 5
2022-01-10 14:08:34 GMT 25.799749 -80.298088 0 286 3
2022-01-10 14:08:33 GMT 25.799749 -80.298073 0 280 3
2022-01-10 14:08:31 GMT 25.799721 -80.298042 0 280 0
2022-01-10 14:08:30 GMT 25.799730 -80.298042 0 280 2
2022-01-10 14:08:29 GMT 25.799730 -80.298050 0 278 3
2022-01-10 14:08:27 GMT 25.799721 -80.298027 0 271 6
2022-01-10 14:08:25 GMT 25.799709 -80.297943 0 252 2
2022-01-10 14:08:24 GMT 25.799681 -80.297943 0 261 4
2022-01-10 14:08:22 GMT 25.799749 -80.297943 0 275 7
2022-01-10 14:08:21 GMT 25.799700 -80.297913 0 271 9
2022-01-10 14:08:20 GMT 25.799770 -80.297836 0 289 7
2022-01-10 14:08:18 GMT 25.799740 -80.297752 0 252 4
2022-01-10 14:08:17 GMT 25.799700 -80.297737 0 251 3
2022-01-10 14:08:16 GMT 25.799700 -80.297760 0 254 8
2022-01-10 14:08:14 GMT 25.799740 -80.297668 0 262 7
2022-01-10 14:08:13 GMT 25.799749 -80.297607 0 258 4
2022-01-10 14:08:12 GMT 25.799749 -80.297577 0 249 3
2022-01-10 14:08:10 GMT 25.799709 -80.297539 0 247 1
2022-01-10 14:08:09 GMT 25.799709 -80.297531 0 247 2
2022-01-10 14:08:08 GMT 25.799721 -80.297531 0 247 2
2022-01-10 14:08:06 GMT 25.799730 -80.297531 0 247 3
2022-01-10 14:08:05 GMT 25.799709 -80.297531 0 247 3
2022-01-10 14:08:04 GMT 25.799709 -80.297523 0 249 3
2022-01-10 14:08:03 GMT 25.799721 -80.297501 0 249 3
2022-01-10 14:08:01 GMT 25.799749 -80.297462 0 249 0
2022-01-10 14:08:00 GMT 25.799761 -80.297447 0 249 0
2022-01-10 14:07:56 GMT 25.799740 -80.297440 0 249 0
2022-01-10 14:07:51 GMT 25.799721 -80.297432 0 249 0
2022-01-10 14:07:49 GMT 25.799721 -80.297440 0 249 0
2022-01-10 14:07:48 GMT 25.799721 -80.297432 0 249 1
2022-01-10 14:07:46 GMT 25.799749 -80.297432 0 249 1
2022-01-10 14:07:40 GMT 25.799740 -80.297447 0 249 0
2022-01-10 14:07:39 GMT 25.799740 -80.297462 0 249 1
2022-01-10 14:07:37 GMT 25.799740 -80.297440 0 249 0
2022-01-10 14:07:36 GMT 25.799749 -80.297432 0 249 0
2022-01-10 14:07:35 GMT 25.799749 -80.297440 0 249 0
2022-01-10 14:07:33 GMT 25.799749 -80.297432 0 249 0
2022-01-10 14:07:31 GMT 25.799740 -80.297440 0 249 0
2022-01-10 14:07:29 GMT 25.799740 -80.297447 0 249 0
2022-01-10 14:07:23 GMT 25.799749 -80.297440 0 249 0
2022-01-10 14:07:22 GMT 25.799740 -80.297447 0 249 0
2022-01-10 14:07:21 GMT 25.799749 -80.297440 0 249 0
2022-01-10 14:07:19 GMT 25.799749 -80.297447 0 249 0
2022-01-10 14:07:18 GMT 25.799740 -80.297447 0 249 0
2022-01-10 14:07:17 GMT 25.799761 -80.297462 0 250 0
2022-01-10 14:07:15 GMT 25.799761 -80.297462 0 250 0
2022-01-10 14:07:13 GMT 25.799749 -80.297447 0 250 0
2022-01-10 14:07:05 GMT 25.799749 -80.297447 0 250 0
2022-01-10 14:07:03 GMT 25.799749 -80.297440 0 250 0
2022-01-10 14:07:02 GMT 25.799749 -80.297432 0 250 1
2022-01-10 14:07:00 GMT 25.799749 -80.297440 0 251 1
2022-01-10 14:06:59 GMT 25.799740 -80.297447 0 251 0
2022-01-10 14:06:58 GMT 25.799740 -80.297478 0 252 4
2022-01-10 14:06:56 GMT 25.799740 -80.297478 0 254 6
2022-01-10 14:06:55 GMT 25.799730 -80.297462 0 260 7
2022-01-10 14:06:53 GMT 25.799770 -80.297371 0 278 1
2022-01-10 14:06:52 GMT 25.799780 -80.297363 0 277 2
2022-01-10 14:06:51 GMT 25.799761 -80.297348 0 276 1
2022-01-10 14:06:49 GMT 25.799761 -80.297340 0 284 3
2022-01-10 14:06:48 GMT 25.799780 -80.297333 0 286 4
2022-01-10 14:06:46 GMT 25.799749 -80.297287 0 273 5
2022-01-10 14:06:45 GMT 25.799730 -80.297249 0 276 4
2022-01-10 14:06:44 GMT 25.799749 -80.297203 0 279 3
2022-01-10 14:06:42 GMT 25.799730 -80.297211 0 268 5
2022-01-10 14:06:41 GMT 25.799740 -80.297203 0 264 8
2022-01-10 14:06:39 GMT 25.799730 -80.297119 0 259 7
2022-01-10 14:06:38 GMT 25.799740 -80.297081 0 263 7
2022-01-10 14:06:37 GMT 25.799740 -80.297028 0 260 5
2022-01-10 14:06:35 GMT 25.799740 -80.296989 0 252 5
2022-01-10 14:06:34 GMT 25.799730 -80.296982 0 258 9
2022-01-10 14:06:32 GMT 25.799780 -80.296890 0 277 6
2022-01-10 14:06:31 GMT 25.799780 -80.296852 0 277 5
2022-01-10 14:06:30 GMT 25.799789 -80.296829 0 277 6
2022-01-10 14:06:29 GMT 25.799749 -80.296783 0 258 6
2022-01-10 14:06:27 GMT 25.799761 -80.296761 0 260 7
2022-01-10 14:06:25 GMT 25.799780 -80.296677 0 272 7
2022-01-10 14:06:23 GMT 25.799789 -80.296600 0 268 6
2022-01-10 14:06:22 GMT 25.799780 -80.296532 0 252 2
2022-01-10 14:06:21 GMT 25.799761 -80.296539 0 252 4
2022-01-10 14:06:19 GMT 25.799770 -80.296509 0 248 5
2022-01-10 14:06:17 GMT 25.799829 -80.296448 0 264 4
2022-01-10 14:06:16 GMT 25.799780 -80.296387 0 267 3
2022-01-10 14:06:15 GMT 25.799801 -80.296356 0 267 2
2022-01-10 14:06:13 GMT 25.799810 -80.296341 0 267 1
2022-01-10 14:06:12 GMT 25.799810 -80.296333 0 267 1
2022-01-10 14:06:11 GMT 25.799801 -80.296310 0 267 1
2022-01-10 14:06:09 GMT 25.799801 -80.296310 0 267 1
2022-01-10 14:06:08 GMT 25.799810 -80.296303 0 267 1
2022-01-10 14:06:06 GMT 25.799820 -80.296288 0 267 0
2022-01-10 14:06:05 GMT 25.799810 -80.296303 0 267 1
2022-01-10 14:06:04 GMT 25.799801 -80.296303 0 267 1
2022-01-10 14:06:01 GMT 25.799801 -80.296280 0 267 0
2022-01-10 14:05:57 GMT 25.799789 -80.296272 0 267 0
2022-01-10 14:05:55 GMT 25.799789 -80.296272 0 272 2
2022-01-10 14:05:54 GMT 25.799801 -80.296288 0 274 0
2022-01-10 14:05:53 GMT 25.799801 -80.296303 0 274 0
2022-01-10 14:05:51 GMT 25.799789 -80.296310 0 274 1
2022-01-10 14:05:50 GMT 25.799801 -80.296310 0 274 3
2022-01-10 14:05:49 GMT 25.799789 -80.296272 0 274 0
2022-01-10 14:05:47 GMT 25.799789 -80.296280 0 271 0
2022-01-10 14:05:46 GMT 25.799780 -80.296272 0 271 0
2022-01-10 14:05:42 GMT 25.799780 -80.296280 0 271 0
2022-01-10 14:05:41 GMT 25.799789 -80.296272 0 271 0
2022-01-10 14:05:39 GMT 25.799801 -80.296280 0 271 0
2022-01-10 14:05:36 GMT 25.799801 -80.296272 0 271 0
2022-01-10 14:05:35 GMT 25.799780 -80.296257 0 272 2
2022-01-10 14:05:34 GMT 25.799801 -80.296272 0 273 2
2022-01-10 14:05:33 GMT 25.799810 -80.296257 0 272 1
2022-01-10 14:05:31 GMT 25.799810 -80.296280 0 257 4
2022-01-10 14:05:29 GMT 25.799780 -80.296211 0 257 2
2022-01-10 14:05:28 GMT 25.799780 -80.296204 0 258 2
2022-01-10 14:05:26 GMT 25.799801 -80.296227 0 268 6
2022-01-10 14:05:25 GMT 25.799820 -80.296181 0 273 5
2022-01-10 14:05:23 GMT 25.799820 -80.296158 0 270 6
2022-01-10 14:05:22 GMT 25.799789 -80.296120 0 263 5
2022-01-10 14:05:20 GMT 25.799820 -80.296066 0 278 4
2022-01-10 14:05:19 GMT 25.799810 -80.296043 0 279 2
2022-01-10 14:05:18 GMT 25.799810 -80.296028 0 280 2
2022-01-10 14:05:17 GMT 25.799820 -80.296028 0 279 5
2022-01-10 14:05:15 GMT 25.799810 -80.295990 0 273 7
2022-01-10 14:05:14 GMT 25.799810 -80.295959 0 269 7
2022-01-10 14:05:13 GMT 25.799789 -80.295868 0 266 5
2022-01-10 14:05:11 GMT 25.799789 -80.295837 0 268 3
2022-01-10 14:05:10 GMT 25.799801 -80.295822 0 274 3
2022-01-10 14:05:09 GMT 25.799810 -80.295830 0 269 6
2022-01-10 14:05:07 GMT 25.799789 -80.295769 0 260 7
2022-01-10 14:05:05 GMT 25.799801 -80.295692 0 257 6
2022-01-10 14:05:04 GMT 25.799820 -80.295662 0 267 7
2022-01-10 14:05:03 GMT 25.799829 -80.295631 0 271 8
2022-01-10 14:05:02 GMT 25.799850 -80.295547 0 278 6
2022-01-10 14:05:00 GMT 25.799820 -80.295502 0 266 4
2022-01-10 14:04:59 GMT 25.799820 -80.295486 0 265 5
2022-01-10 14:04:57 GMT 25.799829 -80.295441 0 270 8
2022-01-10 14:04:56 GMT 25.799829 -80.295349 0 262 7
2022-01-10 14:04:54 GMT 25.799810 -80.295319 0 259 7
2022-01-10 14:04:53 GMT 25.799829 -80.295273 0 265 5
2022-01-10 14:04:52 GMT 25.799829 -80.295242 0 268 5
2022-01-10 14:04:50 GMT 25.799820 -80.295181 0 253 4
2022-01-10 14:04:49 GMT 25.799820 -80.295174 0 258 5
2022-01-10 14:04:47 GMT 25.799850 -80.295120 0 265 8
2022-01-10 14:04:45 GMT 25.799850 -80.295021 0 265 6
2022-01-10 14:04:44 GMT 25.799870 -80.294960 0 270 4
2022-01-10 14:04:42 GMT 25.799870 -80.294922 0 268 2
2022-01-10 14:04:41 GMT 25.799870 -80.294907 0 268 2
2022-01-10 14:04:39 GMT 25.799860 -80.294899 0 265 4
2022-01-10 14:04:38 GMT 25.799860 -80.294891 0 268 6
2022-01-10 14:04:37 GMT 25.799860 -80.294823 0 271 4
2022-01-10 14:04:35 GMT 25.799870 -80.294807 0 270 5
2022-01-10 14:04:34 GMT 25.799860 -80.294792 0 269 5
2022-01-10 14:04:33 GMT 25.799870 -80.294762 0 263 6
2022-01-10 14:04:31 GMT 25.799860 -80.294739 0 252 7
2022-01-10 14:04:30 GMT 25.799870 -80.294693 0 243 6
2022-01-10 14:04:29 GMT 25.799891 -80.294632 0 243 4
2022-01-10 14:04:27 GMT 25.799870 -80.294594 0 240 2
2022-01-10 14:04:26 GMT 25.799879 -80.294540 0 238 1
2022-01-10 14:04:25 GMT 25.799860 -80.294579 0 237 1
2022-01-10 14:04:23 GMT 25.799870 -80.294571 0 237 1
2022-01-10 14:04:22 GMT 25.799870 -80.294548 0 236 0
2022-01-10 14:04:20 GMT 25.799870 -80.294548 0 236 1
2022-01-10 14:04:19 GMT 25.799870 -80.294510 0 236 1
2022-01-10 14:04:17 GMT 25.799860 -80.294510 0 236 1
2022-01-10 14:04:16 GMT 25.799879 -80.294518 0 238 0
2022-01-10 14:04:15 GMT 25.799879 -80.294533 0 238 2
2022-01-10 14:04:13 GMT 25.799900 -80.294487 0 238 0
2022-01-10 14:04:12 GMT 25.799900 -80.294479 0 238 1
2022-01-10 14:04:11 GMT 25.799910 -80.294479 0 241 1
2022-01-10 14:04:09 GMT 25.799870 -80.294449 0 245 2
2022-01-10 14:04:08 GMT 25.799870 -80.294479 0 247 2
2022-01-10 14:04:07 GMT 25.799879 -80.294487 0 247 0
2022-01-10 14:04:04 GMT 25.799910 -80.294510 0 253 0
2022-01-10 14:04:02 GMT 25.799900 -80.294510 0 253 0
2022-01-10 14:04:00 GMT 25.799900 -80.294510 0 253 0
2022-01-10 14:03:58 GMT 25.799910 -80.294502 0 253 0
2022-01-10 14:03:57 GMT 25.799900 -80.294502 0 254 1
2022-01-10 14:03:56 GMT 25.799950 -80.294563 0 254 3
2022-01-10 14:03:55 GMT 25.799919 -80.294540 0 250 3
2022-01-10 14:03:53 GMT 25.799919 -80.294502 0 250 2
2022-01-10 14:03:52 GMT 25.799910 -80.294487 0 250 2
2022-01-10 14:03:50 GMT 25.799900 -80.294502 0 250 0
2022-01-10 14:03:49 GMT 25.799900 -80.294487 0 250 0
2022-01-10 14:03:48 GMT 25.799891 -80.294449 0 252 1
2022-01-10 14:03:47 GMT 25.799910 -80.294441 0 254 1
2022-01-10 14:03:45 GMT 25.799900 -80.294518 0 254 0
2022-01-10 14:03:42 GMT 25.799910 -80.294510 0 254 0
2022-01-10 14:03:41 GMT 25.799891 -80.294502 0 254 0
2022-01-10 14:03:39 GMT 25.799900 -80.294487 0 254 0
2022-01-10 14:03:38 GMT 25.799900 -80.294518 0 254 0
2022-01-10 14:03:36 GMT 25.799891 -80.294518 0 254 0
2022-01-10 14:03:35 GMT 25.799891 -80.294502 0 254 1
2022-01-10 14:03:34 GMT 25.799900 -80.294518 0 254 0
2022-01-10 14:03:33 GMT 25.799900 -80.294502 0 254 1
2022-01-10 14:03:31 GMT 25.799910 -80.294518 0 254 1
2022-01-10 14:03:30 GMT 25.799919 -80.294540 0 254 2
2022-01-10 14:03:28 GMT 25.799919 -80.294510 0 254 0
2022-01-10 14:03:27 GMT 25.799919 -80.294502 0 254 0
2022-01-10 14:03:26 GMT 25.799900 -80.294510 0 254 0
2022-01-10 14:03:21 GMT 25.799900 -80.294502 0 254 1
2022-01-10 14:03:20 GMT 25.799919 -80.294479 0 254 1
2022-01-10 14:03:19 GMT 25.799891 -80.294441 0 254 1
2022-01-10 14:03:18 GMT 25.799900 -80.294456 0 254 1
2022-01-10 14:03:16 GMT 25.799879 -80.294487 0 254 0
2022-01-10 14:03:14 GMT 25.799891 -80.294502 0 254 0
2022-01-10 14:03:11 GMT 25.799891 -80.294487 0 254 0
2022-01-10 14:03:09 GMT 25.799891 -80.294502 0 254 0
2022-01-10 14:03:08 GMT 25.799891 -80.294487 0 254 0
2022-01-10 14:03:07 GMT 25.799891 -80.294502 0 254 0
2022-01-10 14:03:06 GMT 25.799879 -80.294502 0 254 0
2022-01-10 14:03:03 GMT 25.799891 -80.294472 0 254 1
2022-01-10 14:03:02 GMT 25.799891 -80.294487 0 254 1
2022-01-10 14:03:00 GMT 25.799931 -80.294533 0 253 2
2022-01-10 14:02:59 GMT 25.799919 -80.294518 0 253 2
2022-01-10 14:02:58 GMT 25.799891 -80.294502 0 253 0
2022-01-10 14:02:56 GMT 25.799900 -80.294487 0 253 2
2022-01-10 14:02:55 GMT 25.799900 -80.294518 0 247 4
2022-01-10 14:02:54 GMT 25.799870 -80.294472 0 249 2
2022-01-10 14:02:52 GMT 25.799879 -80.294487 0 252 2
2022-01-10 14:02:50 GMT 25.799900 -80.294479 0 253 0
2022-01-10 14:02:49 GMT 25.799919 -80.294472 0 253 2
2022-01-10 14:02:48 GMT 25.799931 -80.294479 0 246 3
2022-01-10 14:02:47 GMT 25.799900 -80.294487 0 246 0
2022-01-10 14:02:45 GMT 25.799870 -80.294502 0 243 3
2022-01-10 14:02:44 GMT 25.799860 -80.294449 0 271 4
2022-01-10 14:02:43 GMT 25.799910 -80.294487 0 271 1
2022-01-10 14:02:41 GMT 25.799910 -80.294510 0 271 2
2022-01-10 14:02:40 GMT 25.799940 -80.294479 0 270 2
2022-01-10 14:02:39 GMT 25.799919 -80.294510 0 264 3
2022-01-10 14:02:37 GMT 25.799891 -80.294487 0 264 0
2022-01-10 14:02:36 GMT 25.799891 -80.294510 0 264 2
2022-01-10 14:02:34 GMT 25.799870 -80.294479 0 263 0
2022-01-10 14:02:33 GMT 25.799879 -80.294487 0 264 2
2022-01-10 14:02:32 GMT 25.799879 -80.294479 0 263 2
2022-01-10 14:02:31 GMT 25.799860 -80.294472 0 269 3
2022-01-10 14:02:29 GMT 25.799891 -80.294449 0 271 2
2022-01-10 14:02:28 GMT 25.799870 -80.294434 0 270 2
2022-01-10 14:02:26 GMT 25.799879 -80.294418 0 273 4
2022-01-10 14:02:25 GMT 25.799870 -80.294403 0 274 4
2022-01-10 14:02:24 GMT 25.799879 -80.294373 0 274 4
2022-01-10 14:02:22 GMT 25.799870 -80.294342 0 268 4
2022-01-10 14:02:21 GMT 25.799879 -80.294296 0 261 3
2022-01-10 14:02:20 GMT 25.799860 -80.294273 0 265 3
2022-01-10 14:02:18 GMT 25.799860 -80.294258 0 266 4
2022-01-10 14:02:17 GMT 25.799870 -80.294228 0 270 2
2022-01-10 14:02:16 GMT 25.799919 -80.294212 0 275 4
2022-01-10 14:02:14 GMT 25.799891 -80.294197 0 265 2
2022-01-10 14:02:11 GMT 25.799919 -80.294151 0 276 3
2022-01-10 14:02:10 GMT 25.799891 -80.294159 0 276 4
2022-01-10 14:02:08 GMT 25.799900 -80.294113 0 269 4
2022-01-10 14:02:07 GMT 25.799879 -80.294090 0 265 3
2022-01-10 14:02:06 GMT 25.799870 -80.294083 0 263 5
2022-01-10 14:02:04 GMT 25.799879 -80.294052 0 267 6
2022-01-10 14:02:03 GMT 25.799879 -80.294022 0 267 5
2022-01-10 14:02:02 GMT 25.799900 -80.293991 0 272 4
2022-01-10 14:02:00 GMT 25.799870 -80.293938 0 258 4
2022-01-10 14:01:59 GMT 25.799879 -80.293922 0 267 3
2022-01-10 14:01:58 GMT 25.799900 -80.293892 0 273 2
2022-01-10 14:01:57 GMT 25.799900 -80.293877 0 273 3
2022-01-10 14:01:54 GMT 25.799891 -80.293854 0 275 3
2022-01-10 14:01:52 GMT 25.799910 -80.293839 0 275 4
2022-01-10 14:01:51 GMT 25.799910 -80.293823 0 276 4
2022-01-10 14:01:50 GMT 25.799919 -80.293800 0 272 4
2022-01-10 14:01:49 GMT 25.799900 -80.293770 0 256 3
2022-01-10 14:01:47 GMT 25.799900 -80.293739 0 254 4
2022-01-10 14:01:46 GMT 25.799910 -80.293716 0 248 4
2022-01-10 14:01:45 GMT 25.799879 -80.293709 0 247 6
2022-01-10 14:01:44 GMT 25.799900 -80.293678 0 258 5
2022-01-10 14:01:42 GMT 25.799940 -80.293617 0 277 3
2022-01-10 14:01:41 GMT 25.799919 -80.293610 0 277 3
2022-01-10 14:01:40 GMT 25.799940 -80.293587 0 274 4
2022-01-10 14:01:38 GMT 25.799950 -80.293579 0 268 5
2022-01-10 14:01:37 GMT 25.799931 -80.293518 0 271 3
2022-01-10 14:01:35 GMT 25.799931 -80.293488 0 266 2
2022-01-10 14:01:34 GMT 25.799919 -80.293488 0 266 3
2022-01-10 14:01:32 GMT 25.799919 -80.293457 0 269 4
2022-01-10 14:01:31 GMT 25.799931 -80.293427 0 271 5
2022-01-10 14:01:30 GMT 25.799940 -80.293404 0 263 4
2022-01-10 14:01:28 GMT 25.799919 -80.293350 0 265 2
2022-01-10 14:01:27 GMT 25.799940 -80.293327 0 267 2
2022-01-10 14:01:25 GMT 25.799931 -80.293343 0 266 4
2022-01-10 14:01:24 GMT 25.799931 -80.293312 0 266 4
2022-01-10 14:01:23 GMT 25.799910 -80.293297 0 256 6
2022-01-10 14:01:21 GMT 25.799931 -80.293251 0 259 6
2022-01-10 14:01:20 GMT 25.799931 -80.293213 0 273 4
2022-01-10 14:01:19 GMT 25.799971 -80.293198 0 275 4
2022-01-10 14:01:17 GMT 25.799940 -80.293137 0 264 2
2022-01-10 14:01:16 GMT 25.799940 -80.293129 0 264 2
2022-01-10 14:01:14 GMT 25.799950 -80.293121 0 267 4
2022-01-10 14:01:12 GMT 25.799950 -80.293083 0 267 2
2022-01-10 14:01:10 GMT 25.799940 -80.293068 0 265 3
2022-01-10 14:01:09 GMT 25.799940 -80.293037 0 251 3
2022-01-10 14:01:06 GMT 25.799931 -80.293007 0 250 2
2022-01-10 14:01:05 GMT 25.799910 -80.293022 0 248 5
2022-01-10 14:01:03 GMT 25.799940 -80.292976 0 265 4
2022-01-10 14:01:02 GMT 25.799950 -80.292969 0 272 5
2022-01-10 14:01:01 GMT 25.799971 -80.292961 0 283 6
2022-01-10 14:01:00 GMT 25.799980 -80.292908 0 284 5
2022-01-10 14:00:59 GMT 25.799950 -80.292870 0 271 7
2022-01-10 14:00:57 GMT 25.799931 -80.292824 0 266 4
2022-01-10 14:00:56 GMT 25.799950 -80.292801 0 266 4
2022-01-10 14:00:55 GMT 25.799931 -80.292778 0 257 4
2022-01-10 14:00:54 GMT 25.799940 -80.292747 0 255 6
2022-01-10 14:00:52 GMT 25.799950 -80.292702 0 255 5
2022-01-10 14:00:51 GMT 25.799980 -80.292679 0 274 9
2022-01-10 14:00:49 GMT 25.799990 -80.292633 0 277 7
2022-01-10 14:00:48 GMT 25.799980 -80.292580 0 270 5
2022-01-10 14:00:47 GMT 25.799959 -80.292519 0 254 5
2022-01-10 14:00:45 GMT 25.799950 -80.292503 0 252 6
2022-01-10 14:00:44 GMT 25.799950 -80.292473 0 259 7
2022-01-10 14:00:42 GMT 25.800011 -80.292419 0 281 6
2022-01-10 14:00:41 GMT 25.799990 -80.292389 0 276 6
2022-01-10 14:00:40 GMT 25.799990 -80.292358 0 276 7
2022-01-10 14:00:38 GMT 25.799980 -80.292290 0 276 6
2022-01-10 14:00:37 GMT 25.799990 -80.292259 0 275 6
2022-01-10 14:00:36 GMT 25.799971 -80.292198 0 263 3
2022-01-10 14:00:34 GMT 25.799971 -80.292168 0 255 3
2022-01-10 14:00:33 GMT 25.799931 -80.292183 0 248 6
2022-01-10 14:00:32 GMT 25.799950 -80.292152 0 257 6
2022-01-10 14:00:31 GMT 25.799990 -80.292107 0 258 4
2022-01-10 14:00:29 GMT 25.799990 -80.292068 0 273 4
2022-01-10 14:00:28 GMT 25.800051 -80.292030 0 275 4
2022-01-10 14:00:27 GMT 25.800039 -80.292023 0 273 4
2022-01-10 14:00:26 GMT 25.799990 -80.292000 0 271 3
2022-01-10 14:00:24 GMT 25.799971 -80.291977 0 271 2
2022-01-10 14:00:23 GMT 25.799971 -80.291946 0 272 1
2022-01-10 14:00:22 GMT 25.799999 -80.291908 0 272 0
2022-01-10 14:00:20 GMT 25.799999 -80.291908 0 272 0
2022-01-10 14:00:17 GMT 25.799999 -80.291901 0 272 0
2022-01-10 14:00:15 GMT 25.799999 -80.291893 0 273 1
2022-01-10 14:00:14 GMT 25.800011 -80.291870 0 273 0
2022-01-10 14:00:12 GMT 25.800011 -80.291878 0 273 0
2022-01-10 14:00:10 GMT 25.800030 -80.291878 0 272 1
2022-01-10 14:00:09 GMT 25.800020 -80.291893 0 270 1
2022-01-10 13:59:59 GMT 25.799990 -80.291893 0 268 0
2022-01-10 13:59:58 GMT 25.799990 -80.291901 0 268 0
2022-01-10 13:59:57 GMT 25.799999 -80.291893 0 268 0
2022-01-10 13:59:54 GMT 25.799990 -80.291893 0 268 0
2022-01-10 13:59:53 GMT 25.799999 -80.291893 0 268 0
2022-01-10 13:59:50 GMT 25.799999 -80.291893 0 268 1
2022-01-10 13:59:48 GMT 25.799990 -80.291893 0 268 0
2022-01-10 13:59:47 GMT 25.799999 -80.291908 0 268 1
2022-01-10 13:59:46 GMT 25.800011 -80.291908 0 268 2
2022-01-10 13:59:45 GMT 25.799999 -80.291878 0 268 0
2022-01-10 13:59:43 GMT 25.800011 -80.291893 0 268 0
2022-01-10 13:59:42 GMT 25.800030 -80.291878 0 267 2
2022-01-10 13:59:40 GMT 25.799999 -80.291901 0 265 0
2022-01-10 13:59:39 GMT 25.799990 -80.291901 0 265 2
2022-01-10 13:59:37 GMT 25.799999 -80.291878 0 267 2
2022-01-10 13:59:36 GMT 25.800011 -80.291908 0 267 1
2022-01-10 13:59:35 GMT 25.799990 -80.291924 0 267 2
2022-01-10 13:59:34 GMT 25.799990 -80.291901 0 268 2
2022-01-10 13:59:32 GMT 25.800011 -80.291901 0 268 4
2022-01-10 13:59:31 GMT 25.800030 -80.291878 0 281 5
2022-01-10 13:59:30 GMT 25.800011 -80.291832 0 266 4
2022-01-10 13:59:28 GMT 25.800020 -80.291840 0 275 8
2022-01-10 13:59:27 GMT 25.800020 -80.291801 0 271 8
2022-01-10 13:59:26 GMT 25.800020 -80.291710 0 268 7
2022-01-10 13:59:24 GMT 25.799990 -80.291649 0 261 5
2022-01-10 13:59:23 GMT 25.799999 -80.291634 0 261 4
2022-01-10 13:59:21 GMT 25.800020 -80.291573 0 283 3
2022-01-10 13:59:20 GMT 25.800011 -80.291580 0 277 6
2022-01-10 13:59:19 GMT 25.799999 -80.291557 0 265 8
2022-01-10 13:59:17 GMT 25.799990 -80.291481 0 258 6
2022-01-10 13:59:16 GMT 25.799990 -80.291443 0 264 5
2022-01-10 13:59:15 GMT 25.800020 -80.291443 0 267 8
2022-01-10 13:59:14 GMT 25.800011 -80.291412 0 263 8
2022-01-10 13:59:12 GMT 25.800011 -80.291298 0 259 5
2022-01-10 13:59:11 GMT 25.800011 -80.291283 0 259 6
2022-01-10 13:59:09 GMT 25.800020 -80.291206 0 266 6
2022-01-10 13:59:07 GMT 25.800020 -80.291122 0 264 4
2022-01-10 13:59:05 GMT 25.800039 -80.291107 0 275 6
2022-01-10 13:59:04 GMT 25.800030 -80.291077 0 273 6
2022-01-10 13:59:02 GMT 25.800030 -80.291023 0 266 6
2022-01-10 13:59:01 GMT 25.800030 -80.290962 0 263 3
2022-01-10 13:59:00 GMT 25.800020 -80.290939 0 269 3
2022-01-10 13:58:59 GMT 25.800051 -80.290916 0 276 2
2022-01-10 13:58:57 GMT 25.800070 -80.290901 0 271 3
2022-01-10 13:58:56 GMT 25.800051 -80.290894 0 269 4
2022-01-10 13:58:55 GMT 25.800051 -80.290871 0 269 4
2022-01-10 13:58:53 GMT 25.800051 -80.290833 0 268 3
2022-01-10 13:58:52 GMT 25.800030 -80.290863 0 268 3
2022-01-10 13:58:50 GMT 25.800030 -80.290771 0 269 0
2022-01-10 13:58:48 GMT 25.800030 -80.290756 0 269 0
2022-01-10 13:58:47 GMT 25.800051 -80.290771 0 269 0
2022-01-10 13:58:46 GMT 25.800060 -80.290771 0 269 0
2022-01-10 13:58:44 GMT 25.800070 -80.290771 0 269 1
2022-01-10 13:58:43 GMT 25.800030 -80.290749 0 271 2
2022-01-10 13:58:41 GMT 25.800051 -80.290779 0 276 1
2022-01-10 13:58:40 GMT 25.800060 -80.290779 0 276 0
2022-01-10 13:58:39 GMT 25.800051 -80.290802 0 276 0
2022-01-10 13:58:38 GMT 25.800060 -80.290817 0 276 2
2022-01-10 13:58:36 GMT 25.800039 -80.290817 0 276 2
2022-01-10 13:58:35 GMT 25.800039 -80.290810 0 276 2
2022-01-10 13:58:33 GMT 25.800039 -80.290771 0 276 1
2022-01-10 13:58:32 GMT 25.800039 -80.290749 0 276 0
2022-01-10 13:58:31 GMT 25.800079 -80.290756 0 276 0
2022-01-10 13:58:30 GMT 25.800051 -80.290771 0 276 0
2022-01-10 13:58:28 GMT 25.800051 -80.290771 0 276 0
2022-01-10 13:58:27 GMT 25.800011 -80.290779 0 277 1
2022-01-10 13:58:24 GMT 25.800020 -80.290787 0 279 1
2022-01-10 13:58:23 GMT 25.800030 -80.290779 0 279 2
2022-01-10 13:58:21 GMT 25.800060 -80.290771 0 279 0
2022-01-10 13:58:18 GMT 25.800051 -80.290756 0 279 0
2022-01-10 13:58:17 GMT 25.800039 -80.290779 0 279 0
2022-01-10 13:58:15 GMT 25.800051 -80.290779 0 279 0
2022-01-10 13:58:13 GMT 25.800020 -80.290787 0 280 2
2022-01-10 13:58:12 GMT 25.800051 -80.290802 0 280 1
2022-01-10 13:58:11 GMT 25.800051 -80.290840 0 281 2
2022-01-10 13:58:09 GMT 25.800051 -80.290833 0 281 3
2022-01-10 13:58:08 GMT 25.800060 -80.290810 0 281 2
2022-01-10 13:58:05 GMT 25.800030 -80.290787 0 281 1
2022-01-10 13:58:03 GMT 25.800091 -80.290771 0 281 1
2022-01-10 13:58:02 GMT 25.800079 -80.290771 0 280 1
2022-01-10 13:58:01 GMT 25.800070 -80.290771 0 278 1
2022-01-10 13:58:00 GMT 25.800039 -80.290749 0 277 0
2022-01-10 13:57:57 GMT 25.800039 -80.290749 0 277 0
2022-01-10 13:57:56 GMT 25.800020 -80.290710 0 277 2
2022-01-10 13:57:54 GMT 25.800030 -80.290749 0 277 0
2022-01-10 13:57:52 GMT 25.800030 -80.290756 0 277 0
2022-01-10 13:57:51 GMT 25.800011 -80.290733 0 277 1
2022-01-10 13:57:49 GMT 25.800039 -80.290756 0 277 0
2022-01-10 13:57:47 GMT 25.800039 -80.290756 0 277 0
2022-01-10 13:57:45 GMT 25.800039 -80.290771 0 277 0
2022-01-10 13:57:42 GMT 25.800060 -80.290771 0 277 0
2022-01-10 13:57:40 GMT 25.800051 -80.290771 0 277 0
2022-01-10 13:57:39 GMT 25.800051 -80.290756 0 277 1
2022-01-10 13:57:38 GMT 25.800060 -80.290756 0 274 2
2022-01-10 13:57:37 GMT 25.800051 -80.290771 0 273 0
2022-01-10 13:57:35 GMT 25.800051 -80.290810 0 270 2
2022-01-10 13:57:34 GMT 25.800039 -80.290802 0 270 1
2022-01-10 13:57:32 GMT 25.800030 -80.290779 0 270 0
2022-01-10 13:57:31 GMT 25.800030 -80.290810 0 270 2
2022-01-10 13:57:29 GMT 25.800030 -80.290771 0 270 0
2022-01-10 13:57:27 GMT 25.800039 -80.290771 0 270 0
2022-01-10 13:57:26 GMT 25.800030 -80.290771 0 270 0
2022-01-10 13:57:25 GMT 25.800030 -80.290779 0 270 1
2022-01-10 13:57:23 GMT 25.800039 -80.290756 0 270 0
2022-01-10 13:57:21 GMT 25.800070 -80.290756 0 269 2
2022-01-10 13:57:20 GMT 25.800051 -80.290802 0 269 1
2022-01-10 13:57:18 GMT 25.800051 -80.290779 0 267 1
2022-01-10 13:57:16 GMT 25.800039 -80.290779 0 266 0
2022-01-10 13:57:14 GMT 25.800020 -80.290771 0 269 1
2022-01-10 13:57:13 GMT 25.800039 -80.290771 0 274 0
2022-01-10 13:57:12 GMT 25.800039 -80.290749 0 274 2
2022-01-10 13:57:11 GMT 25.800051 -80.290771 0 274 0
2022-01-10 13:57:09 GMT 25.800039 -80.290779 0 274 0
2022-01-10 13:57:08 GMT 25.800051 -80.290756 0 274 3
2022-01-10 13:57:07 GMT 25.800051 -80.290779 0 274 0
2022-01-10 13:57:05 GMT 25.800039 -80.290779 0 274 0
2022-01-10 13:57:04 GMT 25.800030 -80.290787 0 275 2
2022-01-10 13:57:03 GMT 25.800060 -80.290771 0 274 1
2022-01-10 13:57:02 GMT 25.800039 -80.290802 0 270 4
2022-01-10 13:57:00 GMT 25.800020 -80.290771 0 258 6
2022-01-10 13:56:59 GMT 25.800011 -80.290741 0 259 5
2022-01-10 13:56:58 GMT 25.800030 -80.290703 0 268 3
2022-01-10 13:56:57 GMT 25.800051 -80.290672 0 268 2
2022-01-10 13:56:55 GMT 25.800039 -80.290672 0 262 3
2022-01-10 13:56:54 GMT 25.800030 -80.290649 0 259 3
2022-01-10 13:56:52 GMT 25.800030 -80.290627 0 256 4
2022-01-10 13:56:51 GMT 25.800030 -80.290604 0 254 3
2022-01-10 13:56:50 GMT 25.800030 -80.290573 0 266 3
2022-01-10 13:56:48 GMT 25.800070 -80.290558 0 266 2
2022-01-10 13:56:47 GMT 25.800060 -80.290558 0 268 5
2022-01-10 13:56:46 GMT 25.800051 -80.290512 0 273 3
2022-01-10 13:56:44 GMT 25.800070 -80.290512 0 278 5
2022-01-10 13:56:43 GMT 25.800070 -80.290489 0 279 6
2022-01-10 13:56:42 GMT 25.800060 -80.290428 0 272 5
2022-01-10 13:56:40 GMT 25.800051 -80.290398 0 264 3
2022-01-10 13:56:39 GMT 25.800039 -80.290390 0 263 5
2022-01-10 13:56:38 GMT 25.800039 -80.290359 0 263 4
2022-01-10 13:56:36 GMT 25.800051 -80.290321 0 269 2
2022-01-10 13:56:35 GMT 25.800070 -80.290329 0 270 4
2022-01-10 13:56:34 GMT 25.800070 -80.290268 0 274 1
2022-01-10 13:56:31 GMT 25.800070 -80.290260 0 276 3
2022-01-10 13:56:30 GMT 25.800070 -80.290230 0 267 3
2022-01-10 13:56:28 GMT 25.800051 -80.290230 0 263 7
2022-01-10 13:56:26 GMT 25.800070 -80.290161 0 268 6
2022-01-10 13:56:25 GMT 25.800079 -80.290131 0 270 7
2022-01-10 13:56:24 GMT 25.800070 -80.290092 0 263 5
2022-01-10 13:56:22 GMT 25.800060 -80.290039 0 260 6
2022-01-10 13:56:21 GMT 25.800079 -80.290024 0 267 6
2022-01-10 13:56:20 GMT 25.800091 -80.289940 0 267 6
2022-01-10 13:56:18 GMT 25.800091 -80.289917 0 265 8
2022-01-10 13:56:17 GMT 25.800091 -80.289871 0 259 7
2022-01-10 13:56:16 GMT 25.800079 -80.289810 0 255 5
2022-01-10 13:56:15 GMT 25.800100 -80.289772 0 268 4
2022-01-10 13:56:12 GMT 25.800110 -80.289726 0 278 4
2022-01-10 13:56:11 GMT 25.800110 -80.289711 0 276 5
2022-01-10 13:56:10 GMT 25.800110 -80.289688 0 270 6
2022-01-10 13:56:08 GMT 25.800070 -80.289627 0 256 6
2022-01-10 13:56:07 GMT 25.800091 -80.289589 0 261 4
2022-01-10 13:56:06 GMT 25.800091 -80.289574 0 259 5
2022-01-10 13:56:04 GMT 25.800100 -80.289497 0 266 3
2022-01-10 13:56:03 GMT 25.800091 -80.289490 0 266 3
2022-01-10 13:56:02 GMT 25.800091 -80.289452 0 269 3
2022-01-10 13:56:00 GMT 25.800100 -80.289391 0 269 2
2022-01-10 13:55:59 GMT 25.800100 -80.289383 0 269 2
2022-01-10 13:55:58 GMT 25.800100 -80.289360 0 269 2
2022-01-10 13:55:57 GMT 25.800110 -80.289337 0 269 1
2022-01-10 13:55:52 GMT 25.800100 -80.289299 0 269 0
2022-01-10 13:55:49 GMT 25.800100 -80.289268 0 269 0
2022-01-10 13:55:47 GMT 25.800100 -80.289268 0 269 0
2022-01-10 13:55:46 GMT 25.800119 -80.289307 0 268 2
2022-01-10 13:55:45 GMT 25.800100 -80.289284 0 268 1
2022-01-10 13:55:43 GMT 25.800091 -80.289261 0 268 0
2022-01-10 13:55:42 GMT 25.800079 -80.289261 0 268 0
2022-01-10 13:55:41 GMT 25.800110 -80.289268 0 269 0
2022-01-10 13:55:38 GMT 25.800110 -80.289268 0 269 0
2022-01-10 13:55:36 GMT 25.800119 -80.289284 0 268 2
2022-01-10 13:55:34 GMT 25.800091 -80.289261 0 268 0
2022-01-10 13:55:32 GMT 25.800091 -80.289253 0 268 0
2022-01-10 13:55:30 GMT 25.800091 -80.289261 0 268 0
2022-01-10 13:55:29 GMT 25.800091 -80.289253 0 268 0
2022-01-10 13:55:26 GMT 25.800091 -80.289253 0 268 0
2022-01-10 13:55:23 GMT 25.800091 -80.289261 0 268 0
2022-01-10 13:55:21 GMT 25.800100 -80.289261 0 268 0
2022-01-10 13:55:19 GMT 25.800100 -80.289253 0 268 0
2022-01-10 13:55:18 GMT 25.800091 -80.289253 0 268 0
2022-01-10 13:55:17 GMT 25.800079 -80.289230 0 272 3
2022-01-10 13:55:15 GMT 25.800100 -80.289253 0 272 0
2022-01-10 13:55:14 GMT 25.800119 -80.289261 0 267 2
2022-01-10 13:55:10 GMT 25.800091 -80.289268 0 264 0
2022-01-10 13:55:08 GMT 25.800091 -80.289284 0 266 2
2022-01-10 13:55:06 GMT 25.800091 -80.289268 0 267 3
2022-01-10 13:55:04 GMT 25.800100 -80.289253 0 273 3
2022-01-10 13:55:03 GMT 25.800110 -80.289223 0 278 2
2022-01-10 13:55:02 GMT 25.800110 -80.289207 0 278 2
2022-01-10 13:55:01 GMT 25.800100 -80.289200 0 280 3
2022-01-10 13:54:59 GMT 25.800119 -80.289162 0 281 0
2022-01-10 13:54:57 GMT 25.800119 -80.289146 0 281 0
2022-01-10 13:54:56 GMT 25.800119 -80.289169 0 281 3
2022-01-10 13:54:54 GMT 25.800110 -80.289124 0 276 0
2022-01-10 13:54:51 GMT 25.800100 -80.289101 0 276 0
2022-01-10 13:54:47 GMT 25.800100 -80.289093 0 276 0
2022-01-10 13:54:46 GMT 25.800091 -80.289093 0 276 0
2022-01-10 13:54:45 GMT 25.800110 -80.289101 0 277 0
2022-01-10 13:54:42 GMT 25.800110 -80.289093 0 277 1
2022-01-10 13:54:40 GMT 25.800110 -80.289062 0 277 0
2022-01-10 13:54:39 GMT 25.800131 -80.289062 0 278 3
2022-01-10 13:54:37 GMT 25.800131 -80.289047 0 273 5
2022-01-10 13:54:36 GMT 25.800110 -80.289017 0 264 8
2022-01-10 13:54:34 GMT 25.800110 -80.288979 0 262 8
2022-01-10 13:54:33 GMT 25.800110 -80.288940 0 266 8
2022-01-10 13:54:31 GMT 25.800140 -80.288841 0 273 7
2022-01-10 13:54:30 GMT 25.800131 -80.288803 0 268 7
2022-01-10 13:54:28 GMT 25.800110 -80.288727 0 276 9
2022-01-10 13:54:27 GMT 25.800140 -80.288681 0 291 8
2022-01-10 13:54:26 GMT 25.800140 -80.288643 0 294 9
2022-01-10 13:54:25 GMT 25.800131 -80.288597 0 297 9
2022-01-10 13:54:23 GMT 25.800110 -80.288483 0 319 8
2022-01-10 13:54:22 GMT 25.800091 -80.288460 0 319 9
2022-01-10 13:54:21 GMT 25.800039 -80.288437 0 320 8
2022-01-10 13:54:19 GMT 25.800011 -80.288368 0 333 9
2022-01-10 13:54:18 GMT 25.799971 -80.288338 0 342 8
2022-01-10 13:54:16 GMT 25.799900 -80.288277 0 356 9
2022-01-10 13:54:15 GMT 25.799860 -80.288292 0 349 9
2022-01-10 13:54:14 GMT 25.799770 -80.288300 0 345 10
2022-01-10 13:54:12 GMT 25.799730 -80.288239 0 3 10
2022-01-10 13:54:11 GMT 25.799681 -80.288239 0 4 9
2022-01-10 13:54:10 GMT 25.799601 -80.288269 0 358 9
2022-01-10 13:54:08 GMT 25.799549 -80.288239 0 4 9
2022-01-10 13:54:07 GMT 25.799500 -80.288261 0 1 8
2022-01-10 13:54:06 GMT 25.799431 -80.288261 0 354 10
2022-01-10 13:54:04 GMT 25.799379 -80.288261 0 351 9
2022-01-10 13:54:03 GMT 25.799339 -80.288269 0 346 9
2022-01-10 13:54:02 GMT 25.799299 -80.288261 0 346 9
2022-01-10 13:54:01 GMT 25.799200 -80.288223 0 5 8
2022-01-10 13:53:59 GMT 25.799141 -80.288223 0 5 5
2022-01-10 13:53:58 GMT 25.799129 -80.288223 0 0 8
2022-01-10 13:53:57 GMT 25.799110 -80.288231 0 356 9
2022-01-10 13:53:55 GMT 25.799021 -80.288223 0 2 8
2022-01-10 13:53:54 GMT 25.798960 -80.288223 0 359 5
2022-01-10 13:53:53 GMT 25.798941 -80.288223 0 0 5
2022-01-10 13:53:52 GMT 25.798861 -80.288239 0 353 3
2022-01-10 13:53:50 GMT 25.798849 -80.288223 0 353 2
2022-01-10 13:53:48 GMT 25.798780 -80.288223 0 353 0
2022-01-10 13:53:47 GMT 25.798771 -80.288223 0 353 0
2022-01-10 13:53:46 GMT 25.798750 -80.288223 0 353 0
2022-01-10 13:53:43 GMT 25.798771 -80.288223 0 353 1
2022-01-10 13:53:40 GMT 25.798780 -80.288231 0 353 2
2022-01-10 13:53:39 GMT 25.798759 -80.288239 0 353 2
2022-01-10 13:53:38 GMT 25.798750 -80.288231 0 354 2
2022-01-10 13:53:37 GMT 25.798710 -80.288200 0 354 0
2022-01-10 13:53:33 GMT 25.798750 -80.288223 0 354 0
2022-01-10 13:53:32 GMT 25.798740 -80.288223 0 354 0
2022-01-10 13:53:30 GMT 25.798750 -80.288223 0 354 1
2022-01-10 13:53:27 GMT 25.798750 -80.288223 0 354 0
2022-01-10 13:53:25 GMT 25.798771 -80.288231 0 354 2
2022-01-10 13:53:23 GMT 25.798750 -80.288208 0 357 0
2022-01-10 13:53:22 GMT 25.798750 -80.288223 0 357 0
2022-01-10 13:53:20 GMT 25.798759 -80.288223 0 357 0
2022-01-10 13:53:17 GMT 25.798759 -80.288223 0 357 0
2022-01-10 13:53:14 GMT 25.798750 -80.288223 0 357 0
2022-01-10 13:53:12 GMT 25.798759 -80.288223 0 357 0
2022-01-10 13:53:11 GMT 25.798750 -80.288223 0 357 0
2022-01-10 13:53:07 GMT 25.798759 -80.288231 0 357 0
2022-01-10 13:53:05 GMT 25.798750 -80.288223 0 357 0
2022-01-10 13:53:04 GMT 25.798750 -80.288208 0 357 0
2022-01-10 13:53:03 GMT 25.798750 -80.288223 0 357 0
2022-01-10 13:53:02 GMT 25.798740 -80.288223 0 357 0
2022-01-10 13:53:01 GMT 25.798759 -80.288261 0 356 2
2022-01-10 13:52:59 GMT 25.798750 -80.288254 0 356 2
2022-01-10 13:52:58 GMT 25.798750 -80.288200 0 356 1
2022-01-10 13:52:57 GMT 25.798759 -80.288231 0 356 1
2022-01-10 13:52:55 GMT 25.798710 -80.288223 0 356 1
2022-01-10 13:52:54 GMT 25.798710 -80.288231 0 356 1
2022-01-10 13:52:52 GMT 25.798780 -80.288208 0 355 1
2022-01-10 13:52:51 GMT 25.798820 -80.288231 0 355 3
2022-01-10 13:52:49 GMT 25.798790 -80.288231 0 354 3
2022-01-10 13:52:48 GMT 25.798780 -80.288231 0 354 3
2022-01-10 13:52:47 GMT 25.798740 -80.288239 0 354 0
2022-01-10 13:52:45 GMT 25.798740 -80.288231 0 355 0
2022-01-10 13:52:44 GMT 25.798740 -80.288223 0 356 0
2022-01-10 13:52:42 GMT 25.798750 -80.288208 0 356 0
2022-01-10 13:52:40 GMT 25.798740 -80.288208 0 356 0
2022-01-10 13:52:39 GMT 25.798740 -80.288223 0 356 1
2022-01-10 13:52:37 GMT 25.798780 -80.288208 0 355 3
2022-01-10 13:52:36 GMT 25.798750 -80.288208 0 355 2
2022-01-10 13:52:34 GMT 25.798731 -80.288208 0 355 2
2022-01-10 13:52:33 GMT 25.798750 -80.288223 0 355 0
2022-01-10 13:52:30 GMT 25.798740 -80.288223 0 355 1
2022-01-10 13:52:29 GMT 25.798731 -80.288223 0 355 1
2022-01-10 13:52:28 GMT 25.798740 -80.288231 0 356 1
2022-01-10 13:52:27 GMT 25.798731 -80.288231 0 356 1
2022-01-10 13:52:26 GMT 25.798750 -80.288231 0 0 2
2022-01-10 13:52:24 GMT 25.798731 -80.288208 0 358 2
2022-01-10 13:52:23 GMT 25.798771 -80.288208 0 358 1
2022-01-10 13:52:22 GMT 25.798759 -80.288200 0 346 3
2022-01-10 13:52:20 GMT 25.798740 -80.288231 0 344 3
2022-01-10 13:52:19 GMT 25.798710 -80.288208 0 358 4
2022-01-10 13:52:17 GMT 25.798700 -80.288200 0 0 4
2022-01-10 13:52:16 GMT 25.798700 -80.288193 0 1 6
2022-01-10 13:52:14 GMT 25.798639 -80.288200 0 359 8
2022-01-10 13:52:13 GMT 25.798611 -80.288193 0 3 9
2022-01-10 13:52:12 GMT 25.798559 -80.288177 0 2 8
2022-01-10 13:52:10 GMT 25.798510 -80.288193 0 1 11
2022-01-10 13:52:09 GMT 25.798460 -80.288193 0 359 12
2022-01-10 13:52:08 GMT 25.798401 -80.288208 0 352 11
2022-01-10 13:52:06 GMT 25.798281 -80.288208 0 350 9
2022-01-10 13:52:05 GMT 25.798189 -80.288177 0 350 9
2022-01-10 13:52:03 GMT 25.798161 -80.288193 0 349 10
2022-01-10 13:52:02 GMT 25.798120 -80.288193 0 349 10
2022-01-10 13:52:01 GMT 25.798071 -80.288170 0 355 10
2022-01-10 13:52:00 GMT 25.797979 -80.288147 0 356 9
2022-01-10 13:51:58 GMT 25.797939 -80.288147 0 345 8
2022-01-10 13:51:57 GMT 25.797890 -80.288170 0 334 8
2022-01-10 13:51:55 GMT 25.797840 -80.288162 0 326 10
2022-01-10 13:51:54 GMT 25.797791 -80.288139 0 326 10
2022-01-10 13:51:53 GMT 25.797710 -80.288094 0 306 9
2022-01-10 13:51:51 GMT 25.797661 -80.288048 0 295 7
2022-01-10 13:51:50 GMT 25.797640 -80.288033 0 289 7
2022-01-10 13:51:49 GMT 25.797600 -80.288010 0 274 8
2022-01-10 13:51:47 GMT 25.797581 -80.287941 0 271 9
2022-01-10 13:51:46 GMT 25.797560 -80.287910 0 267 11
2022-01-10 13:51:45 GMT 25.797560 -80.287781 0 274 7
2022-01-10 13:51:43 GMT 25.797581 -80.287773 0 285 11
2022-01-10 13:51:42 GMT 25.797569 -80.287613 0 309 4
2022-01-10 13:51:41 GMT 25.797569 -80.287598 0 320 6
2022-01-10 13:51:39 GMT 25.797590 -80.287529 0 353 4
2022-01-10 13:51:38 GMT 25.797581 -80.287498 0 355 3
2022-01-10 13:51:29 GMT 25.797590 -80.287361 0 357 0
2022-01-10 13:51:27 GMT 25.797590 -80.287354 0 357 0
2022-01-10 13:50:27 GMT 25.797590 -80.287338 0 0 0

Making use of Plane Finder data

You are free to use the raw flight data, aircraft information and images provided in this report for your own purposes provided the data is correctly attributed to Plane Finder. We ask that you please credit Plane Finder and link to planefinder.net in close proximity to the content.

Optionally one of the following logos (no smaller then 150x24px) can be used and must link to planefinder.net

Embedding the Plane Finder map

You are welcome to embed the Plane Finder playback map on your website to offer visitors a more interactive experience. We suggest using the following HTML code:

<iframe src="//planefinder.net/data/report/AA3858-N207AN-7700-squawk-2022-01-10/map" width="800" height="600" seamless="seamless"></iframe>

Where our data comes from

Plane Finder has a global network of data feeds and antenna radars that receive data broadcast directly from aircraft. The primary technologies used are ADS-B and MLAT. We also show feeds from the FAA and a FLARM glider feed.

Click here to find out more about the Plane Finder network.

How we collect our data